Time,TemperatureF,DewpointF,PressureIn,WindDirection,WindDirectionDegrees,WindSpeedMPH,WindSpeedGustMPH,Humidity,HourlyPrecipIn,Conditions,Clouds,dailyrainin,SoftwareType,DateUTC
2013-08-28 00:00:00,76.7,69.3,29.84,SW,224,0.0,0.0,78,0.00,CLR,,0.00,WeatherDisplay:10.37,2013-08-28 05:00:00,
2013-08-28 00:01:00,76.6,69.2,29.84,SW,224,0.0,0.0,78,0.00,CLR,,0.00,WeatherDisplay:10.37,2013-08-28 05:01:00,
2013-08-28 00:03:00,76.6,69.2,29.84,SW,224,0.0,0.0,78,0.00,CLR,,0.00,WeatherDisplay:10.37,2013-08-28 05:03:00,
2013-08-28 00:05:00,76.5,69.5,29.84,SW,224,0.0,0.0,79,0.00,CLR,,0.00,WeatherDisplay:10.37,2013-08-28 05:05:00,
2013-08-28 00:06:00,76.5,69.5,29.84,SW,224,0.0,0.0,79,0.00,CLR,,0.00,WeatherDisplay:10.37,2013-08-28 05:06:00,
2013-08-28 00:08:00,76.4,69.4,29.84,SW,224,0.0,0.0,79,0.00,CLR,,0.00,WeatherDisplay:10.37,2013-08-28 05:08:00,
2013-08-28 00:10:00,76.4,69.4,29.84,SW,224,0.0,0.0,79,0.00,CLR,,0.00,WeatherDisplay:10.37,2013-08-28 05:10:00,
2013-08-28 00:11:00,76.4,69.4,29.84,SW,224,0.0,0.0,79,0.00,CLR,,0.00,WeatherDisplay:10.37,2013-08-28 05:11:00,
2013-08-28 00:13:00,76.4,69.4,29.84,SW,224,0.0,0.0,79,0.00,CLR,,0.00,WeatherDisplay:10.37,2013-08-28 05:13:00,
2013-08-28 00:14:00,76.3,69.7,29.84,SW,224,0.0,0.0,80,0.00,CLR,,0.00,WeatherDisplay:10.37,2013-08-28 05:14:00,
2013-08-28 00:15:00,76.4,69.8,29.84,SW,224,0.0,0.0,80,0.00,CLR,,0.00,WeatherDisplay:10.37,2013-08-28 05:15:00,
2013-08-28 00:16:00,76.3,69.7,29.84,NNW,328,0.6,2.4,80,0.00,CLR,,0.00,WeatherDisplay:10.37,2013-08-28 05:16:00,
2013-08-28 00:18:00,76.3,69.7,29.84,East,100,0.8,3.5,80,0.00,CLR,,0.00,WeatherDisplay:10.37,2013-08-28 05:18:00,
2013-08-28 00:19:00,76.4,69.8,29.84,SE,130,2.0,4.6,80,0.00,CLR,,0.00,WeatherDisplay:10.37,2013-08-28 05:19:00,
2013-08-28 00:20:00,76.2,69.6,29.84,WSW,258,1.1,4.6,80,0.00,CLR,,0.00,WeatherDisplay:10.37,2013-08-28 05:20:00,
2013-08-28 00:21:00,76.3,69.7,29.84,WSW,237,1.7,2.3,80,0.00,CLR,,0.00,WeatherDisplay:10.37,2013-08-28 05:21:00,
2013-08-28 00:22:00,76.4,70.1,29.84,WSW,258,2.0,2.3,81,0.00,CLR,,0.00,WeatherDisplay:10.37,2013-08-28 05:22:00,
2013-08-28 00:23:00,76.4,70.1,29.84,SW,215,0.7,2.3,81,0.00,CLR,,0.00,WeatherDisplay:10.37,2013-08-28 05:23:00,
2013-08-28 00:25:00,76.4,70.1,29.84,SW,215,0.0,0.0,81,0.00,CLR,,0.00,WeatherDisplay:10.37,2013-08-28 05:25:00,
2013-08-28 00:26:00,76.5,70.2,29.84,SW,215,0.0,0.0,81,0.00,CLR,,0.00,WeatherDisplay:10.37,2013-08-28 05:26:00,
2013-08-28 00:27:00,76.4,70.1,29.84,NNE,32,0.6,3.4,81,0.00,CLR,,0.00,WeatherDisplay:10.37,2013-08-28 05:27:00,
2013-08-28 00:28:00,76.5,70.2,29.84,NE,35,2.3,4.6,81,0.00,CLR,,0.00,WeatherDisplay:10.37,2013-08-28 05:28:00,
2013-08-28 00:31:00,76.4,69.8,29.85,NNE,25,1.4,1.4,80,0.00,CLR,,0.00,WeatherDisplay:10.37,2013-08-28 05:31:00,
2013-08-28 00:32:00,76.5,69.9,29.84,NNE,31,1.4,2.3,80,0.00,CLR,,0.00,WeatherDisplay:10.37,2013-08-28 05:32:00,
2013-08-28 00:34:00,76.6,70.0,29.84,NNE,27,1.4,3.5,80,0.00,CLR,,0.00,WeatherDisplay:10.37,2013-08-28 05:34:00,
2013-08-28 00:36:00,76.6,70.0,29.84,NNE,21,0.7,1.2,80,0.00,CLR,,0.00,WeatherDisplay:10.37,2013-08-28 05:36:00,
2013-08-28 00:37:00,76.5,69.9,29.84,NNE,21,0.0,1.2,80,0.00,CLR,,0.00,WeatherDisplay:10.37,2013-08-28 05:37:00,
2013-08-28 00:39:00,76.4,69.8,29.84,NNE,21,0.0,0.0,80,0.00,CLR,,0.00,WeatherDisplay:10.37,2013-08-28 05:39:00,
2013-08-28 00:40:00,76.6,70.0,29.84,NNE,21,0.0,0.0,80,0.00,CLR,,0.00,WeatherDisplay:10.37,2013-08-28 05:40:00,
2013-08-28 00:41:00,76.5,69.9,29.84,NNE,21,0.0,0.0,80,0.00,CLR,,0.00,WeatherDisplay:10.37,2013-08-28 05:41:00,
2013-08-28 00:43:00,76.4,69.8,29.84,NNE,21,0.0,0.0,80,0.00,CLR,,0.00,WeatherDisplay:10.37,2013-08-28 05:43:00,
2013-08-28 00:44:00,76.4,69.8,29.84,NNE,21,0.0,0.0,80,0.00,CLR,,0.00,WeatherDisplay:10.37,2013-08-28 05:44:00,
2013-08-28 00:45:00,76.3,69.7,29.84,NNE,21,0.0,0.0,80,0.00,CLR,,0.00,WeatherDisplay:10.37,2013-08-28 05:45:00,
2013-08-28 00:46:00,76.4,69.8,29.84,NNE,21,0.0,0.0,80,0.00,CLR,,0.00,WeatherDisplay:10.37,2013-08-28 05:46:00,
2013-08-28 00:48:00,76.4,69.8,29.84,NNE,23,0.0,0.0,80,0.00,CLR,,0.00,WeatherDisplay:10.37,2013-08-28 05:48:00,
2013-08-28 00:50:00,76.3,69.7,29.84,NNE,23,0.0,0.0,80,0.00,CLR,,0.00,WeatherDisplay:10.37,2013-08-28 05:50:00,
2013-08-28 00:51:00,76.3,69.7,29.84,NNE,23,0.0,0.0,80,0.00,CLR,,0.00,WeatherDisplay:10.37,2013-08-28 05:51:00,
2013-08-28 00:53:00,76.3,69.7,29.84,NNE,23,0.0,0.0,80,0.00,CLR,,0.00,WeatherDisplay:10.37,2013-08-28 05:53:00,
2013-08-28 00:55:00,76.2,69.6,29.84,NNE,23,0.0,0.0,80,0.00,CLR,,0.00,WeatherDisplay:10.37,2013-08-28 05:55:00,
2013-08-28 00:56:00,76.2,69.6,29.84,NNE,23,0.0,0.0,80,0.00,CLR,,0.00,WeatherDisplay:10.37,2013-08-28 05:56:00,
2013-08-28 00:57:00,76.2,69.6,29.84,NNE,23,0.0,0.0,80,0.00,CLR,,0.00,WeatherDisplay:10.37,2013-08-28 05:57:00,
2013-08-28 00:59:00,76.2,69.6,29.84,NNE,23,0.0,0.0,80,0.00,CLR,,0.00,WeatherDisplay:10.37,2013-08-28 05:59:00,
2013-08-28 01:00:00,76.2,69.6,29.84,NNE,23,0.0,0.0,80,0.00,CLR,,0.00,WeatherDisplay:10.37,2013-08-28 06:00:00,
2013-08-28 01:01:00,76.1,69.5,29.84,NNE,23,0.0,0.0,80,0.00,CLR,,0.00,WeatherDisplay:10.37,2013-08-28 06:01:00,
2013-08-28 01:02:00,76.1,69.5,29.84,NNE,23,0.0,0.0,80,0.00,CLR,,0.00,WeatherDisplay:10.37,2013-08-28 06:02:00,
2013-08-28 01:05:00,76.0,69.4,29.84,NNE,23,0.0,0.0,80,0.00,CLR,,0.00,WeatherDisplay:10.37,2013-08-28 06:05:00,
2013-08-28 01:06:00,76.0,69.4,29.84,NNE,23,0.0,0.0,80,0.00,CLR,,0.00,WeatherDisplay:10.37,2013-08-28 06:06:00,
2013-08-28 01:07:00,76.0,69.4,29.84,NNE,23,0.0,0.0,80,0.00,CLR,,0.00,WeatherDisplay:10.37,2013-08-28 06:07:00,
2013-08-28 01:08:00,76.0,69.4,29.84,NNE,23,0.0,0.0,80,0.00,CLR,,0.00,WeatherDisplay:10.37,2013-08-28 06:08:00,
2013-08-28 01:10:00,75.9,69.3,29.84,NNE,23,0.0,0.0,80,0.00,CLR,,0.00,WeatherDisplay:10.37,2013-08-28 06:10:00,
2013-08-28 01:11:00,75.9,69.3,29.84,NNE,23,0.0,0.0,80,0.00,CLR,,0.00,WeatherDisplay:10.37,2013-08-28 06:11:00,
2013-08-28 01:12:00,75.9,69.3,29.84,NNE,23,0.0,0.0,80,0.00,CLR,,0.00,WeatherDisplay:10.37,2013-08-28 06:12:00,
2013-08-28 01:13:00,75.7,69.1,29.84,NNE,23,0.0,0.0,80,0.00,CLR,,0.00,WeatherDisplay:10.37,2013-08-28 06:13:00,
2013-08-28 01:15:00,75.8,69.2,29.84,NNE,23,0.5,1.2,80,0.00,CLR,,0.00,WeatherDisplay:10.37,2013-08-28 06:15:00,
2013-08-28 01:16:00,75.8,69.2,29.84,NNE,23,0.0,1.2,80,0.00,CLR,,0.00,WeatherDisplay:10.37,2013-08-28 06:16:00,
2013-08-28 01:17:00,75.8,69.2,29.84,NNE,23,0.0,0.0,80,0.00,CLR,,0.00,WeatherDisplay:10.37,2013-08-28 06:17:00,
2013-08-28 01:18:00,75.8,69.2,29.84,NNE,23,0.0,0.0,80,0.00,CLR,,0.00,WeatherDisplay:10.37,2013-08-28 06:18:00,
2013-08-28 01:20:00,75.7,69.1,29.84,NNE,23,0.0,0.0,80,0.00,CLR,,0.00,WeatherDisplay:10.37,2013-08-28 06:20:00,
2013-08-28 01:21:00,75.7,69.1,29.84,NNE,23,0.0,0.0,80,0.00,CLR,,0.00,WeatherDisplay:10.37,2013-08-28 06:21:00,
2013-08-28 01:22:00,75.7,69.1,29.84,NNE,23,0.0,0.0,80,0.00,CLR,,0.00,WeatherDisplay:10.37,2013-08-28 06:22:00,
2013-08-28 01:23:00,75.7,69.1,29.84,NNE,23,0.0,0.0,80,0.00,CLR,,0.00,WeatherDisplay:10.37,2013-08-28 06:23:00,
2013-08-28 01:25:00,75.6,69.0,29.84,NNE,23,0.0,0.0,80,0.00,CLR,,0.00,WeatherDisplay:10.37,2013-08-28 06:25:00,
2013-08-28 01:26:00,75.5,68.9,29.84,NNE,23,0.0,0.0,80,0.00,CLR,,0.00,WeatherDisplay:10.37,2013-08-28 06:26:00,
2013-08-28 01:27:00,75.6,69.0,29.84,NNE,23,0.0,0.0,80,0.00,CLR,,0.00,WeatherDisplay:10.37,2013-08-28 06:27:00,
2013-08-28 01:28:00,75.5,68.9,29.84,NNE,23,0.0,0.0,80,0.00,CLR,,0.00,WeatherDisplay:10.37,2013-08-28 06:28:00,
2013-08-28 01:30:00,75.5,68.9,29.84,NNE,23,0.0,0.0,80,0.00,CLR,,0.00,WeatherDisplay:10.37,2013-08-28 06:30:00,
2013-08-28 01:31:00,75.6,69.0,29.83,NNE,23,0.0,0.0,80,0.00,CLR,,0.00,WeatherDisplay:10.37,2013-08-28 06:31:00,
2013-08-28 01:32:00,75.4,68.8,29.83,NNE,23,0.0,0.0,80,0.00,CLR,,0.00,WeatherDisplay:10.37,2013-08-28 06:32:00,
2013-08-28 01:33:00,75.4,69.2,29.84,NNE,23,0.0,0.0,81,0.00,CLR,,0.00,WeatherDisplay:10.37,2013-08-28 06:33:00,
2013-08-28 01:35:00,75.5,69.3,29.84,NNE,23,0.0,0.0,81,0.00,CLR,,0.00,WeatherDisplay:10.37,2013-08-28 06:35:00,
2013-08-28 01:36:00,75.3,69.1,29.84,NNE,23,0.0,0.0,81,0.00,CLR,,0.00,WeatherDisplay:10.37,2013-08-28 06:36:00,
2013-08-28 01:37:00,75.3,69.1,29.84,NNE,27,0.1,0.0,81,0.00,CLR,,0.00,WeatherDisplay:10.37,2013-08-28 06:37:00,
2013-08-28 01:38:00,75.5,69.3,29.83,NNE,27,0.0,0.0,81,0.00,CLR,,0.00,WeatherDisplay:10.37,2013-08-28 06:38:00,
2013-08-28 01:39:00,75.4,69.2,29.83,NNE,27,0.0,0.0,81,0.00,CLR,,0.00,WeatherDisplay:10.37,2013-08-28 06:39:00,
2013-08-28 01:40:00,75.3,69.1,29.83,NNE,31,0.1,1.1,81,0.00,CLR,,0.00,WeatherDisplay:10.37,2013-08-28 06:40:00,
2013-08-28 01:41:00,75.3,69.1,29.83,NNE,30,0.7,1.2,81,0.00,CLR,,0.00,WeatherDisplay:10.37,2013-08-28 06:41:00,
2013-08-28 01:42:00,75.3,69.1,29.83,NNE,25,0.2,1.2,81,0.00,CLR,,0.00,WeatherDisplay:10.37,2013-08-28 06:42:00,
2013-08-28 01:44:00,75.4,69.2,29.83,NNE,28,0.2,0.0,81,0.00,CLR,,0.00,WeatherDisplay:10.37,2013-08-28 06:44:00,
2013-08-28 01:45:00,75.3,69.1,29.83,NNE,28,0.0,0.0,81,0.00,CLR,,0.00,WeatherDisplay:10.37,2013-08-28 06:45:00,
2013-08-28 01:46:00,75.2,69.0,29.83,NNE,28,0.0,0.0,81,0.00,CLR,,0.00,WeatherDisplay:10.37,2013-08-28 06:46:00,
2013-08-28 01:47:00,75.3,69.1,29.83,NNE,28,0.0,0.0,81,0.00,CLR,,0.00,WeatherDisplay:10.37,2013-08-28 06:47:00,
2013-08-28 01:50:00,75.3,69.1,29.83,NNE,28,0.0,0.0,81,0.00,CLR,,0.00,WeatherDisplay:10.37,2013-08-28 06:50:00,
2013-08-28 01:51:00,75.2,69.0,29.83,NNE,28,0.0,0.0,81,0.00,CLR,,0.00,WeatherDisplay:10.37,2013-08-28 06:51:00,
2013-08-28 01:52:00,75.2,69.0,29.83,NNE,28,0.0,0.0,81,0.00,CLR,,0.00,WeatherDisplay:10.37,2013-08-28 06:52:00,
2013-08-28 01:55:00,75.1,68.9,29.83,NNE,28,0.0,0.0,81,0.00,CLR,,0.00,WeatherDisplay:10.37,2013-08-28 06:55:00,
2013-08-28 01:56:00,75.1,68.9,29.83,NNE,28,0.0,0.0,81,0.00,CLR,,0.00,WeatherDisplay:10.37,2013-08-28 06:56:00,
2013-08-28 01:57:00,75.1,68.9,29.83,NNE,28,0.0,0.0,81,0.00,CLR,,0.00,WeatherDisplay:10.37,2013-08-28 06:57:00,
2013-08-28 01:58:00,75.1,68.9,29.83,NNE,28,0.0,0.0,81,0.00,CLR,,0.00,WeatherDisplay:10.37,2013-08-28 06:58:00,
2013-08-28 02:01:00,75.0,68.8,29.83,NNE,28,0.0,0.0,81,0.00,CLR,,0.00,WeatherDisplay:10.37,2013-08-28 07:01:00,
2013-08-28 02:02:00,75.0,68.8,29.83,NNE,28,0.0,0.0,81,0.00,CLR,,0.00,WeatherDisplay:10.37,2013-08-28 07:02:00,
2013-08-28 02:03:00,74.9,68.7,29.83,NNE,28,0.0,0.0,81,0.00,CLR,,0.00,WeatherDisplay:10.37,2013-08-28 07:03:00,
2013-08-28 02:06:00,74.9,68.7,29.83,NNE,28,0.0,0.0,81,0.00,CLR,,0.00,WeatherDisplay:10.37,2013-08-28 07:06:00,
2013-08-28 02:07:00,74.7,68.5,29.83,NNE,28,0.0,0.0,81,0.00,CLR,,0.00,WeatherDisplay:10.37,2013-08-28 07:07:00,
2013-08-28 02:08:00,74.9,68.7,29.83,NNE,28,0.0,0.0,81,0.00,CLR,,0.00,WeatherDisplay:10.37,2013-08-28 07:08:00,
2013-08-28 02:09:00,74.8,68.6,29.83,NNE,28,0.0,0.0,81,0.00,CLR,,0.00,WeatherDisplay:10.37,2013-08-28 07:09:00,
2013-08-28 02:11:00,74.8,68.6,29.83,NNE,28,0.0,0.0,81,0.00,CLR,,0.00,WeatherDisplay:10.37,2013-08-28 07:11:00,
2013-08-28 02:12:00,74.7,68.5,29.83,NNE,28,0.0,0.0,81,0.00,CLR,,0.00,WeatherDisplay:10.37,2013-08-28 07:12:00,
2013-08-28 02:13:00,74.7,68.5,29.83,NNE,32,0.1,1.7,81,0.00,CLR,,0.00,WeatherDisplay:10.37,2013-08-28 07:13:00,
2013-08-28 02:14:00,74.7,68.5,29.83,NE,34,0.9,2.2,81,0.00,CLR,,0.00,WeatherDisplay:10.37,2013-08-28 07:14:00,
2013-08-28 02:15:00,74.7,68.5,29.83,NE,37,1.4,2.3,81,0.00,CLR,,0.00,WeatherDisplay:10.37,2013-08-28 07:15:00,
2013-08-28 02:16:00,74.7,68.5,29.84,NNE,27,0.7,1.2,81,0.00,CLR,,0.00,WeatherDisplay:10.37,2013-08-28 07:16:00,
2013-08-28 02:18:00,74.7,68.5,29.84,NNE,17,0.4,1.6,81,0.00,CLR,,0.00,WeatherDisplay:10.37,2013-08-28 07:18:00,
2013-08-28 02:19:00,74.7,68.8,29.84,NNE,27,1.4,2.3,82,0.00,CLR,,0.00,WeatherDisplay:10.37,2013-08-28 07:19:00,
2013-08-28 02:20:00,74.7,68.8,29.84,NE,45,1.4,2.3,82,0.00,CLR,,0.00,WeatherDisplay:10.37,2013-08-28 07:20:00,
2013-08-28 02:22:00,74.8,68.9,29.84,ENE,65,1.4,2.3,82,0.00,CLR,,0.00,WeatherDisplay:10.37,2013-08-28 07:22:00,
2013-08-28 02:23:00,74.8,68.9,29.84,NE,56,0.7,1.2,82,0.00,CLR,,0.00,WeatherDisplay:10.37,2013-08-28 07:23:00,
2013-08-28 02:24:00,74.7,68.8,29.84,ENE,73,1.6,2.3,82,0.00,CLR,,0.00,WeatherDisplay:10.37,2013-08-28 07:24:00,
2013-08-28 02:25:00,74.9,69.0,29.84,ESE,123,0.7,3.4,82,0.00,CLR,,0.00,WeatherDisplay:10.37,2013-08-28 07:25:00,
2013-08-28 02:27:00,74.8,69.3,29.84,NE,55,1.8,5.8,83,0.00,CLR,,0.00,WeatherDisplay:10.37,2013-08-28 07:27:00,
2013-08-28 02:28:00,74.7,69.2,29.84,NE,42,2.7,5.8,83,0.00,CLR,,0.00,WeatherDisplay:10.37,2013-08-28 07:28:00,
2013-08-28 02:29:00,74.9,69.4,29.84,NE,49,2.7,4.6,83,0.00,CLR,,0.00,WeatherDisplay:10.37,2013-08-28 07:29:00,
2013-08-28 02:32:00,74.9,69.4,29.84,North,7,1.3,4.6,83,0.00,CLR,,0.00,WeatherDisplay:10.37,2013-08-28 07:32:00,
2013-08-28 02:33:00,74.7,69.2,29.84,NW,325,0.8,2.3,83,0.00,CLR,,0.00,WeatherDisplay:10.37,2013-08-28 07:33:00,
2013-08-28 02:34:00,74.8,69.3,29.84,NNE,17,2.3,3.5,83,0.00,CLR,,0.00,WeatherDisplay:10.37,2013-08-28 07:34:00,
2013-08-28 02:37:00,74.8,69.3,29.85,ENE,65,2.5,4.6,83,0.00,CLR,,0.00,WeatherDisplay:10.37,2013-08-28 07:37:00,
2013-08-28 02:38:00,74.9,69.4,29.85,East,96,1.4,3.5,83,0.00,CLR,,0.00,WeatherDisplay:10.37,2013-08-28 07:38:00,
2013-08-28 02:40:00,74.7,69.2,29.85,NE,56,2.6,4.6,83,0.00,CLR,,0.00,WeatherDisplay:10.37,2013-08-28 07:40:00,
2013-08-28 02:41:00,74.7,69.2,29.85,NE,48,3.2,4.6,83,0.00,CLR,,0.00,WeatherDisplay:10.37,2013-08-28 07:41:00,
2013-08-28 02:42:00,74.8,69.3,29.85,NNE,30,2.1,4.6,83,0.00,CLR,,0.00,WeatherDisplay:10.37,2013-08-28 07:42:00,
2013-08-28 02:43:00,74.8,69.3,29.85,NNE,31,1.9,4.6,83,0.00,CLR,,0.00,WeatherDisplay:10.37,2013-08-28 07:43:00,
2013-08-28 02:45:00,74.7,69.2,29.85,East,80,2.0,4.6,83,0.00,CLR,,0.00,WeatherDisplay:10.37,2013-08-28 07:45:00,
2013-08-28 02:46:00,74.7,69.2,29.85,NE,42,0.6,2.3,83,0.00,CLR,,0.00,WeatherDisplay:10.37,2013-08-28 07:46:00,
2013-08-28 02:47:00,74.7,68.8,29.85,NNE,32,0.1,1.2,82,0.00,CLR,,0.00,WeatherDisplay:10.37,2013-08-28 07:47:00,
2013-08-28 02:48:00,74.7,68.8,29.85,NNE,31,1.0,1.4,82,0.00,CLR,,0.00,WeatherDisplay:10.37,2013-08-28 07:48:00,
2013-08-28 02:49:00,74.7,68.8,29.85,NE,51,1.3,2.3,82,0.00,CLR,,0.00,WeatherDisplay:10.37,2013-08-28 07:49:00,
2013-08-28 02:50:00,74.7,68.8,29.85,East,96,0.7,2.2,82,0.00,CLR,,0.00,WeatherDisplay:10.37,2013-08-28 07:50:00,
2013-08-28 02:51:00,74.6,68.7,29.85,NNE,13,2.0,2.3,82,0.00,CLR,,0.00,WeatherDisplay:10.37,2013-08-28 07:51:00,
2013-08-28 02:53:00,74.6,68.7,29.85,NE,37,0.6,3.5,82,0.00,CLR,,0.00,WeatherDisplay:10.37,2013-08-28 07:53:00,
2013-08-28 02:54:00,74.6,68.7,29.85,NE,38,1.3,2.3,82,0.00,CLR,,0.00,WeatherDisplay:10.37,2013-08-28 07:54:00,
2013-08-28 02:56:00,74.4,68.5,29.85,NE,34,0.0,1.2,82,0.00,CLR,,0.00,WeatherDisplay:10.37,2013-08-28 07:56:00,
2013-08-28 02:57:00,74.4,68.5,29.85,NE,54,0.7,1.5,82,0.00,CLR,,0.00,WeatherDisplay:10.37,2013-08-28 07:57:00,
2013-08-28 02:58:00,74.4,68.5,29.85,ENE,68,1.5,2.3,82,0.00,CLR,,0.00,WeatherDisplay:10.37,2013-08-28 07:58:00,
2013-08-28 02:59:00,74.4,68.5,29.85,NE,56,1.0,3.5,82,0.00,CLR,,0.00,WeatherDisplay:10.37,2013-08-28 07:59:00,
2013-08-28 03:01:00,74.3,68.4,29.85,ENE,75,1.5,2.3,82,0.00,CLR,,0.00,WeatherDisplay:10.37,2013-08-28 08:01:00,
2013-08-28 03:03:00,74.3,68.4,29.85,ENE,69,1.7,2.4,82,0.00,CLR,,0.00,WeatherDisplay:10.37,2013-08-28 08:03:00,
2013-08-28 03:04:00,74.3,68.4,29.86,ENE,72,1.7,3.7,82,0.00,CLR,,0.00,WeatherDisplay:10.37,2013-08-28 08:04:00,
2013-08-28 03:06:00,74.2,68.3,29.86,NNE,32,0.2,2.3,82,0.00,CLR,,0.00,WeatherDisplay:10.37,2013-08-28 08:06:00,
2013-08-28 03:08:00,74.2,68.3,29.86,ENE,58,2.1,3.5,82,0.00,CLR,,0.00,WeatherDisplay:10.37,2013-08-28 08:08:00,
2013-08-28 03:09:00,74.2,68.3,29.86,NNE,21,2.5,3.5,82,0.00,CLR,,0.00,WeatherDisplay:10.37,2013-08-28 08:09:00,
2013-08-28 03:13:00,74.1,68.3,29.86,East,83,3.1,4.6,82,0.00,CLR,,0.00,WeatherDisplay:10.37,2013-08-28 08:13:00,
2013-08-28 03:14:00,74.1,68.6,29.86,ENE,69,4.4,8.1,83,0.00,CLR,,0.00,WeatherDisplay:10.37,2013-08-28 08:14:00,
2013-08-28 03:15:00,74.0,68.5,29.86,ENE,65,2.1,5.8,83,0.00,CLR,,0.00,WeatherDisplay:10.37,2013-08-28 08:15:00,
2013-08-28 03:18:00,73.8,68.3,29.86,East,97,1.9,3.2,83,0.00,CLR,,0.00,WeatherDisplay:10.37,2013-08-28 08:18:00,
2013-08-28 03:19:00,74.0,68.5,29.86,North,350,2.1,2.4,83,0.00,CLR,,0.00,WeatherDisplay:10.37,2013-08-28 08:19:00,
2013-08-28 03:20:00,74.0,68.5,29.86,North,352,2.6,3.5,83,0.00,CLR,,0.00,WeatherDisplay:10.37,2013-08-28 08:20:00,
2013-08-28 03:24:00,73.9,68.4,29.86,ENE,64,5.1,9.2,83,0.00,CLR,,0.00,WeatherDisplay:10.37,2013-08-28 08:24:00,
2013-08-28 03:25:00,74.0,68.5,29.86,ENE,73,4.7,9.2,83,0.00,CLR,,0.00,WeatherDisplay:10.37,2013-08-28 08:25:00,
2013-08-28 03:29:00,73.6,68.1,29.86,NNE,18,2.4,5.8,83,0.00,CLR,,0.00,WeatherDisplay:10.37,2013-08-28 08:29:00,
2013-08-28 03:30:00,73.9,68.4,29.86,East,100,2.2,3.5,83,0.00,CLR,,0.00,WeatherDisplay:10.37,2013-08-28 08:30:00,
2013-08-28 03:31:00,73.9,68.4,29.86,ENE,65,2.9,3.5,83,0.00,CLR,,0.00,WeatherDisplay:10.37,2013-08-28 08:31:00,
2013-08-28 03:34:00,73.9,68.4,29.87,West,271,1.9,2.3,83,0.00,CLR,,0.00,WeatherDisplay:10.37,2013-08-28 08:34:00,
2013-08-28 03:35:00,73.7,68.2,29.86,East,96,2.3,6.0,83,0.00,CLR,,0.00,WeatherDisplay:10.37,2013-08-28 08:35:00,
2013-08-28 03:36:00,73.9,68.4,29.86,ENE,75,4.3,5.8,83,0.00,CLR,,0.00,WeatherDisplay:10.37,2013-08-28 08:36:00,
2013-08-28 03:37:00,73.9,68.8,29.87,ENE,75,3.6,5.8,84,0.00,CLR,,0.00,WeatherDisplay:10.37,2013-08-28 08:37:00,
2013-08-28 03:39:00,73.8,68.7,29.87,NNW,332,2.9,4.6,84,0.00,CLR,,0.00,WeatherDisplay:10.37,2013-08-28 08:39:00,
2013-08-28 03:40:00,73.8,68.7,29.87,NE,40,1.1,4.6,84,0.00,CLR,,0.00,WeatherDisplay:10.37,2013-08-28 08:40:00,
2013-08-28 03:41:00,74.0,68.9,29.86,East,96,3.2,4.0,84,0.00,CLR,,0.00,WeatherDisplay:10.37,2013-08-28 08:41:00,
2013-08-28 03:42:00,73.8,68.7,29.87,NE,38,2.6,6.9,84,0.00,CLR,,0.00,WeatherDisplay:10.37,2013-08-28 08:42:00,
2013-08-28 03:44:00,73.9,68.8,29.87,ESE,103,2.2,3.5,84,0.00,CLR,,0.00,WeatherDisplay:10.37,2013-08-28 08:44:00,
2013-08-28 03:45:00,73.9,68.8,29.87,ESE,106,2.7,3.5,84,0.00,CLR,,0.00,WeatherDisplay:10.37,2013-08-28 08:45:00,
2013-08-28 03:47:00,73.8,68.7,29.87,North,10,3.6,4.6,84,0.00,CLR,,0.00,WeatherDisplay:10.37,2013-08-28 08:47:00,
2013-08-28 03:48:00,73.9,68.8,29.87,NE,54,4.3,6.9,84,0.00,CLR,,0.00,WeatherDisplay:10.37,2013-08-28 08:48:00,
2013-08-28 03:49:00,73.8,68.7,29.87,North,349,1.4,2.3,84,0.00,CLR,,0.00,WeatherDisplay:10.37,2013-08-28 08:49:00,
2013-08-28 03:50:00,73.9,68.8,29.87,ENE,68,1.4,3.0,84,0.00,CLR,,0.00,WeatherDisplay:10.37,2013-08-28 08:50:00,
2013-08-28 03:52:00,73.9,68.8,29.87,East,89,2.2,3.7,84,0.00,CLR,,0.00,WeatherDisplay:10.37,2013-08-28 08:52:00,
2013-08-28 03:53:00,73.8,68.7,29.87,NNE,31,2.6,3.9,84,0.00,CLR,,0.00,WeatherDisplay:10.37,2013-08-28 08:53:00,
2013-08-28 03:54:00,73.8,68.7,29.87,ESE,114,2.7,4.6,84,0.00,CLR,,0.00,WeatherDisplay:10.37,2013-08-28 08:54:00,
2013-08-28 03:55:00,73.6,68.5,29.87,NE,44,1.5,3.5,84,0.00,CLR,,0.00,WeatherDisplay:10.37,2013-08-28 08:55:00,
2013-08-28 03:56:00,73.8,68.7,29.87,East,93,2.1,4.4,84,0.00,CLR,,0.00,WeatherDisplay:10.37,2013-08-28 08:56:00,
2013-08-28 03:57:00,73.9,68.8,29.87,East,86,3.2,4.6,84,0.00,CLR,,0.00,WeatherDisplay:10.37,2013-08-28 08:57:00,
2013-08-28 03:58:00,73.9,68.8,29.87,East,79,2.5,4.6,84,0.00,CLR,,0.00,WeatherDisplay:10.37,2013-08-28 08:58:00,
2013-08-28 03:59:00,73.8,68.7,29.87,ESE,112,4.0,6.9,84,0.00,CLR,,0.00,WeatherDisplay:10.37,2013-08-28 08:59:00,
2013-08-28 04:01:00,73.9,68.8,29.87,NNE,25,2.6,6.9,84,0.00,CLR,,0.00,WeatherDisplay:10.37,2013-08-28 09:01:00,
2013-08-28 04:03:00,73.9,68.8,29.87,ESE,119,2.0,5.8,84,0.00,CLR,,0.00,WeatherDisplay:10.37,2013-08-28 09:03:00,
2013-08-28 04:04:00,74.0,68.9,29.87,East,86,1.8,4.6,84,0.00,CLR,,0.00,WeatherDisplay:10.37,2013-08-28 09:04:00,
2013-08-28 04:06:00,73.8,68.7,29.87,East,89,1.1,2.3,84,0.00,CLR,,0.00,WeatherDisplay:10.37,2013-08-28 09:06:00,
2013-08-28 04:09:00,73.9,68.8,29.87,ESE,117,3.1,4.6,84,0.00,CLR,,0.00,WeatherDisplay:10.37,2013-08-28 09:09:00,
2013-08-28 04:10:00,73.9,68.8,29.88,SE,145,3.3,5.8,84,0.00,CLR,,0.00,WeatherDisplay:10.37,2013-08-28 09:10:00,
2013-08-28 04:11:00,73.9,68.8,29.88,ENE,66,1.4,3.5,84,0.00,CLR,,0.00,WeatherDisplay:10.37,2013-08-28 09:11:00,
2013-08-28 04:12:00,73.9,68.8,29.88,ENE,78,0.6,2.3,84,0.00,CLR,,0.00,WeatherDisplay:10.37,2013-08-28 09:12:00,
2013-08-28 04:14:00,73.8,68.7,29.88,ESE,103,1.6,5.8,84,0.00,CLR,,0.00,WeatherDisplay:10.37,2013-08-28 09:14:00,
2013-08-28 04:15:00,73.8,68.7,29.88,North,356,1.2,3.5,84,0.00,CLR,,0.00,WeatherDisplay:10.37,2013-08-28 09:15:00,
2013-08-28 04:16:00,73.9,68.8,29.88,ENE,61,2.1,5.4,84,0.00,CLR,,0.00,WeatherDisplay:10.37,2013-08-28 09:16:00,
2013-08-28 04:17:00,73.7,68.6,29.88,East,83,3.4,5.8,84,0.00,CLR,,0.00,WeatherDisplay:10.37,2013-08-28 09:17:00,
2013-08-28 04:20:00,73.8,68.7,29.88,NNE,23,1.9,8.1,84,0.00,CLR,,0.00,WeatherDisplay:10.37,2013-08-28 09:20:00,
2013-08-28 04:21:00,73.8,68.7,29.88,North,10,2.2,4.6,84,0.00,CLR,,0.00,WeatherDisplay:10.37,2013-08-28 09:21:00,
2013-08-28 04:23:00,73.9,68.8,29.88,NE,42,2.5,4.6,84,0.00,CLR,,0.00,WeatherDisplay:10.37,2013-08-28 09:23:00,
2013-08-28 04:25:00,73.9,68.8,29.88,NE,56,2.8,3.7,84,0.00,CLR,,0.00,WeatherDisplay:10.37,2013-08-28 09:25:00,
2013-08-28 04:26:00,73.9,68.8,29.88,NNE,21,2.8,4.6,84,0.00,CLR,,0.00,WeatherDisplay:10.37,2013-08-28 09:26:00,
2013-08-28 04:29:00,73.9,68.8,29.88,SE,133,2.5,4.6,84,0.00,CLR,,0.00,WeatherDisplay:10.37,2013-08-28 09:29:00,
2013-08-28 04:30:00,73.9,68.8,29.88,NE,40,3.6,4.7,84,0.00,CLR,,0.00,WeatherDisplay:10.37,2013-08-28 09:30:00,
2013-08-28 04:31:00,73.9,68.8,29.88,ENE,73,3.9,5.8,84,0.00,CLR,,0.00,WeatherDisplay:10.37,2013-08-28 09:31:00,
2013-08-28 04:32:00,73.8,68.7,29.88,NE,51,3.6,5.8,84,0.00,CLR,,0.00,WeatherDisplay:10.37,2013-08-28 09:32:00,
2013-08-28 04:33:00,73.9,68.8,29.89,East,93,3.2,6.9,84,0.00,CLR,,0.00,WeatherDisplay:10.37,2013-08-28 09:33:00,
2013-08-28 04:34:00,73.9,68.8,29.89,North,360,3.2,5.8,84,0.00,CLR,,0.00,WeatherDisplay:10.37,2013-08-28 09:34:00,
2013-08-28 04:35:00,73.9,68.8,29.89,ESE,114,2.0,5.8,84,0.00,CLR,,0.00,WeatherDisplay:10.37,2013-08-28 09:35:00,
2013-08-28 04:37:00,73.6,68.5,29.88,ESE,112,2.4,3.5,84,0.00,CLR,,0.00,WeatherDisplay:10.37,2013-08-28 09:37:00,
2013-08-28 04:38:00,73.8,68.7,29.89,NE,56,4.1,9.2,84,0.00,CLR,,0.00,WeatherDisplay:10.37,2013-08-28 09:38:00,
2013-08-28 04:40:00,73.9,68.8,29.89,North,11,0.6,2.3,84,0.00,CLR,,0.00,WeatherDisplay:10.37,2013-08-28 09:40:00,
2013-08-28 04:42:00,73.9,68.8,29.89,NE,35,0.2,1.2,84,0.00,CLR,,0.00,WeatherDisplay:10.37,2013-08-28 09:42:00,
2013-08-28 04:44:00,73.8,68.7,29.89,ESE,119,2.5,3.5,84,0.00,CLR,,0.00,WeatherDisplay:10.37,2013-08-28 09:44:00,
2013-08-28 04:45:00,73.8,68.7,29.89,NE,55,2.5,5.8,84,0.00,CLR,,0.00,WeatherDisplay:10.37,2013-08-28 09:45:00,
2013-08-28 04:47:00,73.8,68.7,29.89,East,90,3.3,4.6,84,0.00,CLR,,0.00,WeatherDisplay:10.37,2013-08-28 09:47:00,
2013-08-28 04:48:00,73.8,68.7,29.89,SE,133,4.9,6.0,84,0.00,CLR,,0.00,WeatherDisplay:10.37,2013-08-28 09:48:00,
2013-08-28 04:49:00,73.8,68.7,29.89,ENE,61,4.1,8.1,84,0.00,CLR,,0.00,WeatherDisplay:10.37,2013-08-28 09:49:00,
2013-08-28 04:50:00,73.7,68.6,29.89,NE,48,2.6,3.5,84,0.00,CLR,,0.00,WeatherDisplay:10.37,2013-08-28 09:50:00,
2013-08-28 04:51:00,73.8,68.7,29.89,NE,45,2.3,5.8,84,0.00,CLR,,0.00,WeatherDisplay:10.37,2013-08-28 09:51:00,
2013-08-28 04:52:00,73.7,68.6,29.89,NNE,20,1.7,5.8,84,0.00,CLR,,0.00,WeatherDisplay:10.37,2013-08-28 09:52:00,
2013-08-28 04:53:00,73.5,68.4,29.89,ENE,59,3.5,4.6,84,0.00,CLR,,0.00,WeatherDisplay:10.37,2013-08-28 09:53:00,
2013-08-28 04:54:00,73.8,68.7,29.89,NNE,21,3.6,4.6,84,0.00,CLR,,0.00,WeatherDisplay:10.37,2013-08-28 09:54:00,
2013-08-28 04:55:00,73.7,68.6,29.89,ENE,72,3.2,4.6,84,0.00,CLR,,0.00,WeatherDisplay:10.37,2013-08-28 09:55:00,
2013-08-28 04:57:00,73.8,68.7,29.90,East,83,2.6,4.6,84,0.00,CLR,,0.00,WeatherDisplay:10.37,2013-08-28 09:57:00,
2013-08-28 04:59:00,73.7,68.6,29.90,NNE,27,0.8,2.3,84,0.00,CLR,,0.00,WeatherDisplay:10.37,2013-08-28 09:59:00,
2013-08-28 05:00:00,73.7,68.6,29.90,NNE,21,1.3,4.6,84,0.00,CLR,,0.00,WeatherDisplay:10.37,2013-08-28 10:00:00,
2013-08-28 05:03:00,73.6,68.5,29.90,East,97,1.3,2.9,84,0.00,CLR,,0.00,WeatherDisplay:10.37,2013-08-28 10:03:00,
2013-08-28 05:04:00,73.7,68.6,29.90,ENE,69,3.0,4.6,84,0.00,CLR,,0.00,WeatherDisplay:10.37,2013-08-28 10:04:00,
2013-08-28 05:05:00,73.7,68.6,29.90,North,11,2.7,4.6,84,0.00,CLR,,0.00,WeatherDisplay:10.37,2013-08-28 10:05:00,
2013-08-28 05:06:00,73.7,68.6,29.90,NE,48,2.1,4.6,84,0.00,CLR,,0.00,WeatherDisplay:10.37,2013-08-28 10:06:00,
2013-08-28 05:08:00,73.4,68.3,29.90,North,360,1.3,2.9,84,0.00,CLR,,0.00,WeatherDisplay:10.37,2013-08-28 10:08:00,
2013-08-28 05:10:00,73.6,68.5,29.90,NE,35,1.1,4.6,84,0.00,CLR,,0.00,WeatherDisplay:10.37,2013-08-28 10:10:00,
2013-08-28 05:11:00,73.6,68.5,29.90,NNE,20,2.2,4.6,84,0.00,CLR,,0.00,WeatherDisplay:10.37,2013-08-28 10:11:00,
2013-08-28 05:13:00,73.4,68.3,29.90,NE,54,0.2,1.2,84,0.00,CLR,,0.00,WeatherDisplay:10.37,2013-08-28 10:13:00,
2013-08-28 05:14:00,73.6,68.5,29.90,ENE,68,0.1,1.2,84,0.00,CLR,,0.00,WeatherDisplay:10.37,2013-08-28 10:14:00,
2013-08-28 05:15:00,73.4,68.3,29.90,NE,37,1.7,3.5,84,0.00,CLR,,0.00,WeatherDisplay:10.37,2013-08-28 10:15:00,
2013-08-28 05:16:00,73.6,68.5,29.90,ENE,64,1.2,3.5,84,0.00,CLR,,0.00,WeatherDisplay:10.37,2013-08-28 10:16:00,
2013-08-28 05:17:00,73.7,68.6,29.90,ENE,61,2.2,3.5,84,0.00,CLR,,0.00,WeatherDisplay:10.37,2013-08-28 10:17:00,
2013-08-28 05:19:00,73.7,68.6,29.90,NNE,14,1.1,3.5,84,0.00,CLR,,0.00,WeatherDisplay:10.37,2013-08-28 10:19:00,
2013-08-28 05:20:00,73.6,68.5,29.90,North,360,2.2,3.5,84,0.00,CLR,,0.00,WeatherDisplay:10.37,2013-08-28 10:20:00,
2013-08-28 05:21:00,73.6,68.5,29.90,North,8,1.3,3.5,84,0.00,CLR,,0.00,WeatherDisplay:10.37,2013-08-28 10:21:00,
2013-08-28 05:22:00,73.6,68.5,29.90,NE,40,1.5,3.5,84,0.00,CLR,,0.00,WeatherDisplay:10.37,2013-08-28 10:22:00,
2013-08-28 05:23:00,73.3,68.2,29.90,NNE,30,0.8,1.4,84,0.00,CLR,,0.00,WeatherDisplay:10.37,2013-08-28 10:23:00,
2013-08-28 05:24:00,73.3,68.2,29.90,NE,55,1.0,3.0,84,0.00,CLR,,0.00,WeatherDisplay:10.37,2013-08-28 10:24:00,
2013-08-28 05:26:00,73.6,68.5,29.90,NNE,24,2.6,4.6,84,0.00,CLR,,0.00,WeatherDisplay:10.37,2013-08-28 10:26:00,
2013-08-28 05:27:00,73.5,68.4,29.90,ENE,78,3.2,4.9,84,0.00,CLR,,0.00,WeatherDisplay:10.37,2013-08-28 10:27:00,
2013-08-28 05:29:00,73.6,68.5,29.90,ENE,62,0.1,2.3,84,0.00,CLR,,0.00,WeatherDisplay:10.37,2013-08-28 10:29:00,
2013-08-28 05:31:00,73.5,68.4,29.90,East,92,0.4,1.2,84,0.00,CLR,,0.00,WeatherDisplay:10.37,2013-08-28 10:31:00,
2013-08-28 05:32:00,73.5,68.4,29.90,East,95,1.1,1.2,84,0.00,CLR,,0.00,WeatherDisplay:10.37,2013-08-28 10:32:00,
2013-08-28 05:34:00,73.6,68.5,29.90,ESE,104,1.2,2.3,84,0.00,CLR,,0.00,WeatherDisplay:10.37,2013-08-28 10:34:00,
2013-08-28 05:35:00,73.5,68.4,29.91,NE,52,2.0,2.9,84,0.00,CLR,,0.00,WeatherDisplay:10.37,2013-08-28 10:35:00,
2013-08-28 05:36:00,73.4,68.3,29.90,SE,134,3.8,6.9,84,0.00,CLR,,0.00,WeatherDisplay:10.37,2013-08-28 10:36:00,
2013-08-28 05:37:00,73.6,68.5,29.91,ENE,66,2.2,3.5,84,0.00,CLR,,0.00,WeatherDisplay:10.37,2013-08-28 10:37:00,
2013-08-28 05:38:00,73.5,68.4,29.91,East,99,2.9,3.5,84,0.00,CLR,,0.00,WeatherDisplay:10.37,2013-08-28 10:38:00,
2013-08-28 05:39:00,73.3,68.2,29.91,North,360,3.7,5.3,84,0.00,CLR,,0.00,WeatherDisplay:10.37,2013-08-28 10:39:00,
2013-08-28 05:40:00,73.5,68.4,29.91,NE,41,4.6,8.1,84,0.00,CLR,,0.00,WeatherDisplay:10.37,2013-08-28 10:40:00,
2013-08-28 05:41:00,73.5,68.4,29.91,ENE,62,2.7,4.6,84,0.00,CLR,,0.00,WeatherDisplay:10.37,2013-08-28 10:41:00,
2013-08-28 05:42:00,73.5,68.4,29.91,NE,34,2.5,4.7,84,0.00,CLR,,0.00,WeatherDisplay:10.37,2013-08-28 10:42:00,
2013-08-28 05:43:00,73.3,68.2,29.91,East,96,3.5,3.5,84,0.00,CLR,,0.00,WeatherDisplay:10.37,2013-08-28 10:43:00,
2013-08-28 05:45:00,73.4,68.3,29.91,East,92,1.9,3.5,84,0.00,CLR,,0.00,WeatherDisplay:10.37,2013-08-28 10:45:00,
2013-08-28 05:46:00,73.3,68.2,29.91,NE,40,1.8,2.4,84,0.00,CLR,,0.00,WeatherDisplay:10.37,2013-08-28 10:46:00,
2013-08-28 05:48:00,73.3,68.2,29.91,East,90,2.3,3.5,84,0.00,CLR,,0.00,WeatherDisplay:10.37,2013-08-28 10:48:00,
2013-08-28 05:50:00,73.2,68.1,29.91,ENE,65,2.2,3.7,84,0.00,CLR,,0.00,WeatherDisplay:10.37,2013-08-28 10:50:00,
2013-08-28 05:51:00,73.2,68.1,29.91,East,89,2.4,4.6,84,0.00,CLR,,0.00,WeatherDisplay:10.37,2013-08-28 10:51:00,
2013-08-28 05:52:00,73.2,68.1,29.91,NE,41,2.5,2.7,84,0.00,CLR,,0.00,WeatherDisplay:10.37,2013-08-28 10:52:00,
2013-08-28 05:53:00,73.2,68.1,29.91,ENE,64,2.6,3.5,84,0.00,CLR,,0.00,WeatherDisplay:10.37,2013-08-28 10:53:00,
2013-08-28 05:54:00,73.2,68.1,29.91,SE,128,2.6,3.5,84,0.00,CLR,,0.00,WeatherDisplay:10.37,2013-08-28 10:54:00,
2013-08-28 05:55:00,73.2,68.1,29.92,East,96,2.7,4.6,84,0.00,CLR,,0.00,WeatherDisplay:10.37,2013-08-28 10:55:00,
2013-08-28 05:56:00,73.2,68.1,29.91,NE,40,3.9,5.0,84,0.00,CLR,,0.00,WeatherDisplay:10.37,2013-08-28 10:56:00,
2013-08-28 05:57:00,73.2,68.1,29.92,NE,55,4.0,6.9,84,0.00,CLR,,0.00,WeatherDisplay:10.37,2013-08-28 10:57:00,
2013-08-28 05:58:00,73.1,68.0,29.92,NE,54,2.3,3.5,84,0.00,CLR,,0.00,WeatherDisplay:10.37,2013-08-28 10:58:00,
2013-08-28 05:59:00,73.1,68.0,29.92,SSE,154,2.5,3.5,84,0.00,CLR,,0.00,WeatherDisplay:10.37,2013-08-28 10:59:00,
2013-08-28 06:01:00,73.1,68.0,29.92,East,88,3.6,5.8,84,0.00,CLR,,0.00,WeatherDisplay:10.37,2013-08-28 11:01:00,
2013-08-28 06:02:00,73.0,67.9,29.92,ENE,59,2.9,6.0,84,0.00,CLR,,0.00,WeatherDisplay:10.37,2013-08-28 11:02:00,
2013-08-28 06:04:00,73.1,68.0,29.92,East,92,1.2,2.3,84,0.00,CLR,,0.00,WeatherDisplay:10.37,2013-08-28 11:04:00,
2013-08-28 06:06:00,73.0,67.9,29.92,NE,34,2.3,2.3,84,0.00,CLR,,0.00,WeatherDisplay:10.37,2013-08-28 11:06:00,
2013-08-28 06:07:00,73.0,67.9,29.92,ESE,107,0.6,2.3,84,0.00,CLR,,0.00,WeatherDisplay:10.37,2013-08-28 11:07:00,
2013-08-28 06:08:00,73.0,67.9,29.92,NNE,23,0.4,2.3,84,0.00,CLR,,0.00,WeatherDisplay:10.37,2013-08-28 11:08:00,
2013-08-28 06:09:00,72.9,67.8,29.92,ESE,104,0.5,1.2,84,0.00,CLR,,0.00,WeatherDisplay:10.37,2013-08-28 11:09:00,
2013-08-28 06:11:00,72.9,67.8,29.92,ESE,117,1.2,4.6,84,0.00,CLR,,0.00,WeatherDisplay:10.37,2013-08-28 11:11:00,
2013-08-28 06:12:00,72.9,67.8,29.92,East,83,2.6,3.5,84,0.00,CLR,,0.00,WeatherDisplay:10.37,2013-08-28 11:12:00,
2013-08-28 06:13:00,72.8,67.7,29.92,ESE,109,3.2,3.5,84,0.00,CLR,,0.00,WeatherDisplay:10.37,2013-08-28 11:13:00,
2013-08-28 06:14:00,72.9,67.8,29.93,ENE,71,4.5,7.6,84,0.00,CLR,,0.00,WeatherDisplay:10.37,2013-08-28 11:14:00,
2013-08-28 06:16:00,72.9,67.8,29.93,North,7,3.9,6.9,84,0.00,CLR,,0.00,WeatherDisplay:10.37,2013-08-28 11:16:00,
2013-08-28 06:17:00,72.9,67.8,29.93,ESE,110,4.7,8.1,84,0.00,CLR,,0.00,WeatherDisplay:10.37,2013-08-28 11:17:00,
2013-08-28 06:19:00,72.7,67.6,29.93,NE,54,3.5,6.9,84,0.00,CLR,,0.00,WeatherDisplay:10.37,2013-08-28 11:19:00,
2013-08-28 06:22:00,72.6,67.5,29.93,SE,124,4.0,5.8,84,0.00,CLR,,0.00,WeatherDisplay:10.37,2013-08-28 11:22:00,
2013-08-28 06:25:00,72.5,67.4,29.93,NNE,24,4.1,5.8,84,0.00,CLR,,0.00,WeatherDisplay:10.37,2013-08-28 11:25:00,
2013-08-28 06:27:00,72.3,67.2,29.93,North,3,1.9,5.3,84,0.00,CLR,,0.00,WeatherDisplay:10.37,2013-08-28 11:27:00,
2013-08-28 06:28:00,72.4,67.3,29.93,ENE,75,4.2,5.8,84,0.00,CLR,,0.00,WeatherDisplay:10.37,2013-08-28 11:28:00,
2013-08-28 06:30:00,72.3,67.2,29.93,East,86,2.0,3.5,84,0.00,CLR,,0.00,WeatherDisplay:10.37,2013-08-28 11:30:00,
2013-08-28 06:32:00,72.2,67.1,29.93,NE,48,1.2,3.5,84,0.00,CLR,,0.00,WeatherDisplay:10.37,2013-08-28 11:32:00,
2013-08-28 06:33:00,72.0,67.2,29.93,ESE,112,0.6,2.4,85,0.00,CLR,,0.00,WeatherDisplay:10.37,2013-08-28 11:33:00,
2013-08-28 06:35:00,72.2,67.4,29.94,ENE,73,3.3,9.2,85,0.00,CLR,,0.00,WeatherDisplay:10.37,2013-08-28 11:35:00,
2013-08-28 06:36:00,72.0,67.2,29.94,ENE,64,2.6,4.6,85,0.00,CLR,,0.00,WeatherDisplay:10.37,2013-08-28 11:36:00,
2013-08-28 06:37:00,72.1,67.3,29.94,West,278,1.1,4.6,85,0.00,CLR,,0.00,WeatherDisplay:10.37,2013-08-28 11:37:00,
2013-08-28 06:38:00,72.0,67.2,29.94,ENE,62,0.4,2.3,85,0.00,CLR,,0.00,WeatherDisplay:10.37,2013-08-28 11:38:00,
2013-08-28 06:39:00,72.1,67.3,29.94,ENE,73,2.5,4.1,85,0.00,CLR,,0.00,WeatherDisplay:10.37,2013-08-28 11:39:00,
2013-08-28 06:40:00,72.0,67.2,29.94,NNE,21,4.5,6.9,85,0.00,CLR,,0.00,WeatherDisplay:10.37,2013-08-28 11:40:00,
2013-08-28 06:41:00,71.8,67.0,29.94,ENE,58,2.6,4.6,85,0.00,CLR,,0.00,WeatherDisplay:10.37,2013-08-28 11:41:00,
2013-08-28 06:42:00,71.9,67.1,29.94,NE,52,0.7,4.6,85,0.00,CLR,,0.00,WeatherDisplay:10.37,2013-08-28 11:42:00,
2013-08-28 06:43:00,71.8,67.0,29.94,NE,52,0.1,1.2,85,0.00,CLR,,0.00,WeatherDisplay:10.37,2013-08-28 11:43:00,
2013-08-28 06:44:00,71.9,67.1,29.94,East,97,2.4,5.8,85,0.00,CLR,,0.00,WeatherDisplay:10.37,2013-08-28 11:44:00,
2013-08-28 06:45:00,71.9,67.1,29.94,NE,48,2.2,3.5,85,0.00,CLR,,0.00,WeatherDisplay:10.37,2013-08-28 11:45:00,
2013-08-28 06:46:00,71.9,67.1,29.94,NNE,25,2.9,4.6,85,0.00,CLR,,0.00,WeatherDisplay:10.37,2013-08-28 11:46:00,
2013-08-28 06:47:00,71.9,67.1,29.95,North,349,2.5,3.5,85,0.00,CLR,,0.00,WeatherDisplay:10.37,2013-08-28 11:47:00,
2013-08-28 06:48:00,71.8,67.0,29.94,ENE,62,3.1,6.9,85,0.00,CLR,,0.00,WeatherDisplay:10.37,2013-08-28 11:48:00,
2013-08-28 06:49:00,71.8,67.0,29.94,East,99,2.1,5.8,85,0.00,CLR,,0.00,WeatherDisplay:10.37,2013-08-28 11:49:00,
2013-08-28 06:50:00,71.8,67.0,29.94,East,82,3.1,5.8,85,0.00,CLR,,0.00,WeatherDisplay:10.37,2013-08-28 11:50:00,
2013-08-28 06:51:00,71.8,67.0,29.94,ENE,64,2.6,5.8,85,0.00,CLR,,0.00,WeatherDisplay:10.37,2013-08-28 11:51:00,
2013-08-28 06:52:00,71.7,66.9,29.94,NNE,27,2.6,3.5,85,0.00,CLR,,0.00,WeatherDisplay:10.37,2013-08-28 11:52:00,
2013-08-28 06:53:00,71.7,66.9,29.95,ENE,71,2.1,4.6,85,0.00,CLR,,0.00,WeatherDisplay:10.37,2013-08-28 11:53:00,
2013-08-28 06:54:00,71.7,66.9,29.95,ESE,119,2.5,3.5,85,0.00,CLR,,0.00,WeatherDisplay:10.37,2013-08-28 11:54:00,
2013-08-28 06:56:00,71.7,66.9,29.95,East,96,2.4,5.8,85,0.00,CLR,,0.00,WeatherDisplay:10.37,2013-08-28 11:56:00,
2013-08-28 06:57:00,71.7,66.9,29.95,NE,51,2.0,4.6,85,0.00,CLR,,0.00,WeatherDisplay:10.37,2013-08-28 11:57:00,
2013-08-28 06:58:00,71.7,66.9,29.95,ENE,59,1.5,2.3,85,0.00,CLR,,0.00,WeatherDisplay:10.37,2013-08-28 11:58:00,
2013-08-28 06:59:00,71.6,66.8,29.95,NE,45,0.7,2.3,85,0.00,CLR,,0.00,WeatherDisplay:10.37,2013-08-28 11:59:00,
2013-08-28 07:01:00,71.7,66.9,29.95,East,88,1.7,2.3,85,0.00,CLR,,0.00,WeatherDisplay:10.37,2013-08-28 12:01:00,
2013-08-28 07:02:00,71.7,66.9,29.95,ENE,68,2.9,3.5,85,0.00,CLR,,0.00,WeatherDisplay:10.37,2013-08-28 12:02:00,
2013-08-28 07:03:00,71.6,66.8,29.95,NE,37,1.8,5.8,85,0.00,CLR,,0.00,WeatherDisplay:10.37,2013-08-28 12:03:00,
2013-08-28 07:06:00,71.6,67.2,29.95,NE,54,1.6,3.9,86,0.00,CLR,,0.00,WeatherDisplay:10.37,2013-08-28 12:06:00,
2013-08-28 07:07:00,71.5,67.1,29.95,ENE,75,1.9,3.5,86,0.00,CLR,,0.00,WeatherDisplay:10.37,2013-08-28 12:07:00,
2013-08-28 07:08:00,71.6,67.2,29.95,ENE,76,2.7,4.9,86,0.00,CLR,,0.00,WeatherDisplay:10.37,2013-08-28 12:08:00,
2013-08-28 07:11:00,71.7,67.3,29.95,NNW,340,1.4,4.6,86,0.00,CLR,,0.00,WeatherDisplay:10.37,2013-08-28 12:11:00,
2013-08-28 07:13:00,71.5,67.1,29.95,NE,48,0.7,2.3,86,0.00,CLR,,0.00,WeatherDisplay:10.37,2013-08-28 12:13:00,
2013-08-28 07:15:00,71.5,67.1,29.95,East,86,1.7,3.5,86,0.00,CLR,,0.00,WeatherDisplay:10.37,2013-08-28 12:15:00,
2013-08-28 07:16:00,71.5,67.1,29.95,NW,322,0.4,2.1,86,0.00,CLR,,0.00,WeatherDisplay:10.37,2013-08-28 12:16:00,
2013-08-28 07:18:00,71.6,67.2,29.95,NNE,13,2.3,3.5,86,0.00,CLR,,0.00,WeatherDisplay:10.37,2013-08-28 12:18:00,
2013-08-28 07:19:00,71.5,67.1,29.95,East,82,2.8,4.6,86,0.00,CLR,,0.00,WeatherDisplay:10.37,2013-08-28 12:19:00,
2013-08-28 07:20:00,71.6,67.2,29.95,NE,49,1.5,3.5,86,0.00,CLR,,0.00,WeatherDisplay:10.37,2013-08-28 12:20:00,
2013-08-28 07:22:00,71.6,67.2,29.95,NE,49,0.0,0.0,86,0.00,CLR,,0.00,WeatherDisplay:10.37,2013-08-28 12:22:00,
2013-08-28 07:23:00,71.6,67.2,29.95,ENE,72,1.9,4.5,86,0.00,CLR,,0.00,WeatherDisplay:10.37,2013-08-28 12:23:00,
2013-08-28 07:24:00,71.6,67.2,29.95,NE,38,3.0,4.6,86,0.00,CLR,,0.00,WeatherDisplay:10.37,2013-08-28 12:24:00,
2013-08-28 07:25:00,71.6,67.2,29.95,ENE,62,1.5,4.6,86,0.00,CLR,,0.00,WeatherDisplay:10.37,2013-08-28 12:25:00,
2013-08-28 07:26:00,71.6,67.2,29.95,NE,47,1.4,3.5,86,0.00,CLR,,0.00,WeatherDisplay:10.37,2013-08-28 12:26:00,
2013-08-28 07:27:00,71.6,67.2,29.95,NNE,25,1.7,3.5,86,0.00,CLR,,0.00,WeatherDisplay:10.37,2013-08-28 12:27:00,
2013-08-28 07:28:00,71.6,67.2,29.95,North,11,1.1,3.5,86,0.00,CLR,,0.00,WeatherDisplay:10.37,2013-08-28 12:28:00,
2013-08-28 07:29:00,71.5,67.1,29.95,East,95,2.3,3.5,86,0.00,CLR,,0.00,WeatherDisplay:10.37,2013-08-28 12:29:00,
2013-08-28 07:30:00,71.6,67.2,29.95,NE,34,1.3,3.5,86,0.00,CLR,,0.00,WeatherDisplay:10.37,2013-08-28 12:30:00,
2013-08-28 07:32:00,71.6,67.2,29.95,NNE,20,1.7,3.5,86,0.00,CLR,,0.00,WeatherDisplay:10.37,2013-08-28 12:32:00,
2013-08-28 07:33:00,71.5,67.1,29.95,NE,34,1.6,3.5,86,0.00,CLR,,0.00,WeatherDisplay:10.37,2013-08-28 12:33:00,
2013-08-28 07:34:00,71.6,67.2,29.95,East,88,1.2,3.5,86,0.00,CLR,,0.00,WeatherDisplay:10.37,2013-08-28 12:34:00,
2013-08-28 07:37:00,71.6,67.2,29.95,ENE,73,2.5,4.6,86,0.00,CLR,,0.00,WeatherDisplay:10.37,2013-08-28 12:37:00,
2013-08-28 07:38:00,71.6,67.2,29.95,ENE,72,2.6,3.5,86,0.00,CLR,,0.00,WeatherDisplay:10.37,2013-08-28 12:38:00,
2013-08-28 07:39:00,71.6,67.2,29.95,NE,48,2.1,3.5,86,0.00,CLR,,0.00,WeatherDisplay:10.37,2013-08-28 12:39:00,
2013-08-28 07:42:00,71.7,67.3,29.96,NNW,339,1.1,2.3,86,0.00,CLR,,0.00,WeatherDisplay:10.37,2013-08-28 12:42:00,
2013-08-28 07:43:00,71.7,67.3,29.96,NNW,339,0.8,2.3,86,0.00,CLR,,0.00,WeatherDisplay:10.37,2013-08-28 12:43:00,
2013-08-28 07:44:00,71.6,67.2,29.96,NNE,32,1.7,2.3,86,0.00,CLR,,0.00,WeatherDisplay:10.37,2013-08-28 12:44:00,
2013-08-28 07:48:00,71.7,67.3,29.96,NE,49,0.9,2.3,86,0.00,CLR,,0.00,WeatherDisplay:10.37,2013-08-28 12:48:00,
2013-08-28 07:49:00,71.7,67.3,29.96,NE,44,0.4,1.2,86,0.00,CLR,,0.00,WeatherDisplay:10.37,2013-08-28 12:49:00,
2013-08-28 07:50:00,71.7,67.3,29.96,ENE,72,1.3,2.1,86,0.00,CLR,,0.00,WeatherDisplay:10.37,2013-08-28 12:50:00,
2013-08-28 07:53:00,71.7,67.3,29.96,ENE,65,0.8,3.2,86,0.00,CLR,,0.00,WeatherDisplay:10.37,2013-08-28 12:53:00,
2013-08-28 07:54:00,71.7,67.3,29.96,NNE,32,2.3,4.6,86,0.00,CLR,,0.00,WeatherDisplay:10.37,2013-08-28 12:54:00,
2013-08-28 07:55:00,71.7,67.3,29.96,NW,326,1.5,4.2,86,0.00,CLR,,0.00,WeatherDisplay:10.37,2013-08-28 12:55:00,
2013-08-28 07:58:00,71.7,67.3,29.96,NW,322,1.7,4.6,86,0.00,CLR,,0.00,WeatherDisplay:10.37,2013-08-28 12:58:00,
2013-08-28 07:59:00,71.7,67.3,29.96,NE,41,1.1,3.5,86,0.00,CLR,,0.00,WeatherDisplay:10.37,2013-08-28 12:59:00,
2013-08-28 08:00:00,71.6,67.2,29.96,ENE,64,1.1,2.3,86,0.00,CLR,,0.00,WeatherDisplay:10.37,2013-08-28 13:00:00,
2013-08-28 08:03:00,71.7,67.3,29.96,ENE,64,2.0,3.5,86,0.00,CLR,,0.00,WeatherDisplay:10.37,2013-08-28 13:03:00,
2013-08-28 08:04:00,71.7,67.3,29.96,East,97,4.1,6.4,86,0.00,CLR,,0.00,WeatherDisplay:10.37,2013-08-28 13:04:00,
2013-08-28 08:05:00,71.7,67.3,29.96,ESE,113,4.1,6.9,86,0.00,CLR,,0.00,WeatherDisplay:10.37,2013-08-28 13:05:00,
2013-08-28 08:08:00,71.7,67.3,29.96,East,97,2.5,5.8,86,0.00,CLR,,0.00,WeatherDisplay:10.37,2013-08-28 13:08:00,
2013-08-28 08:09:00,71.6,67.2,29.96,East,79,1.2,4.6,86,0.00,CLR,,0.00,WeatherDisplay:10.37,2013-08-28 13:09:00,
2013-08-28 08:10:00,71.7,67.3,29.96,North,11,2.0,4.6,86,0.00,CLR,,0.00,WeatherDisplay:10.37,2013-08-28 13:10:00,
2013-08-28 08:13:00,71.5,67.1,29.96,NE,48,3.5,6.9,86,0.00,CLR,,0.00,WeatherDisplay:10.37,2013-08-28 13:13:00,
2013-08-28 08:14:00,71.6,67.2,29.96,ENE,61,3.9,6.9,86,0.00,CLR,,0.00,WeatherDisplay:10.37,2013-08-28 13:14:00,
2013-08-28 08:15:00,71.5,67.1,29.96,NNE,23,3.2,6.2,86,0.00,CLR,,0.00,WeatherDisplay:10.37,2013-08-28 13:15:00,
2013-08-28 08:16:00,71.7,67.3,29.96,NNW,347,4.3,6.9,86,0.00,CLR,,0.00,WeatherDisplay:10.37,2013-08-28 13:16:00,
2013-08-28 08:19:00,71.5,67.1,29.96,NNE,20,3.5,8.1,86,0.00,CLR,,0.00,WeatherDisplay:10.37,2013-08-28 13:19:00,
2013-08-28 08:20:00,71.5,67.1,29.96,ENE,65,3.0,4.6,86,0.00,CLR,,0.00,WeatherDisplay:10.37,2013-08-28 13:20:00,
2013-08-28 08:22:00,71.5,67.1,29.97,NNE,32,2.7,6.9,86,0.00,CLR,,0.00,WeatherDisplay:10.37,2013-08-28 13:22:00,
2013-08-28 08:24:00,71.5,67.1,29.96,NE,35,1.9,4.6,86,0.00,CLR,,0.00,WeatherDisplay:10.37,2013-08-28 13:24:00,
2013-08-28 08:25:00,71.5,67.1,29.97,North,6,1.8,5.1,86,0.00,CLR,,0.00,WeatherDisplay:10.37,2013-08-28 13:25:00,
2013-08-28 08:26:00,71.3,66.9,29.97,East,99,3.1,3.7,86,0.00,CLR,,0.00,WeatherDisplay:10.37,2013-08-28 13:26:00,
2013-08-28 08:27:00,71.4,67.0,29.96,NE,34,2.8,4.6,86,0.00,CLR,,0.00,WeatherDisplay:10.37,2013-08-28 13:27:00,
2013-08-28 08:29:00,71.5,67.1,29.97,ESE,106,1.6,6.3,86,0.00,CLR,,0.00,WeatherDisplay:10.37,2013-08-28 13:29:00,
2013-08-28 08:31:00,71.4,67.0,29.97,ENE,62,3.7,6.9,86,0.00,CLR,,0.00,WeatherDisplay:10.37,2013-08-28 13:31:00,
2013-08-28 08:32:00,71.5,67.1,29.97,ENE,69,1.1,4.6,86,0.00,CLR,,0.00,WeatherDisplay:10.37,2013-08-28 13:32:00,
2013-08-28 08:34:00,71.5,67.1,29.97,ENE,58,2.4,4.6,86,0.00,CLR,,0.00,WeatherDisplay:10.37,2013-08-28 13:34:00,
2013-08-28 08:36:00,71.5,67.1,29.97,NNE,13,1.7,3.5,86,0.00,CLR,,0.00,WeatherDisplay:10.37,2013-08-28 13:36:00,
2013-08-28 08:37:00,71.5,67.1,29.97,East,80,0.6,2.3,86,0.00,CLR,,0.00,WeatherDisplay:10.37,2013-08-28 13:37:00,
2013-08-28 08:38:00,71.5,67.1,29.97,East,96,0.7,2.3,86,0.00,CLR,,0.00,WeatherDisplay:10.37,2013-08-28 13:38:00,
2013-08-28 08:39:00,71.5,66.8,29.96,NNE,31,1.7,4.6,85,0.00,CLR,,0.00,WeatherDisplay:10.37,2013-08-28 13:39:00,
2013-08-28 08:40:00,71.5,66.8,29.96,North,6,0.5,4.6,85,0.00,CLR,,0.00,WeatherDisplay:10.37,2013-08-28 13:40:00,
2013-08-28 08:41:00,71.4,66.7,29.96,NE,45,0.5,2.4,85,0.00,CLR,,0.00,WeatherDisplay:10.37,2013-08-28 13:41:00,
2013-08-28 08:42:00,71.5,66.8,29.96,NNE,18,2.1,3.5,85,0.00,CLR,,0.00,WeatherDisplay:10.37,2013-08-28 13:42:00,
2013-08-28 08:43:00,71.6,66.8,29.96,NNW,335,2.0,4.6,85,0.00,CLR,,0.00,WeatherDisplay:10.37,2013-08-28 13:43:00,
2013-08-28 08:44:00,71.6,66.8,29.96,NE,56,2.6,4.6,85,0.00,CLR,,0.00,WeatherDisplay:10.37,2013-08-28 13:44:00,
2013-08-28 08:45:00,71.7,66.9,29.96,ESE,103,2.6,4.6,85,0.00,CLR,,0.00,WeatherDisplay:10.37,2013-08-28 13:45:00,
2013-08-28 08:46:00,71.6,66.8,29.96,NE,42,1.8,3.5,85,0.00,CLR,,0.00,WeatherDisplay:10.37,2013-08-28 13:46:00,
2013-08-28 08:47:00,71.6,66.8,29.97,NE,51,2.5,4.6,85,0.00,CLR,,0.00,WeatherDisplay:10.37,2013-08-28 13:47:00,
2013-08-28 08:48:00,71.7,66.9,29.96,NE,51,2.9,5.8,85,0.00,CLR,,0.00,WeatherDisplay:10.37,2013-08-28 13:48:00,
2013-08-28 08:49:00,71.7,66.9,29.96,NNE,13,2.1,5.8,85,0.00,CLR,,0.00,WeatherDisplay:10.37,2013-08-28 13:49:00,
2013-08-28 08:50:00,71.7,66.9,29.97,NE,47,3.6,6.2,85,0.00,CLR,,0.00,WeatherDisplay:10.37,2013-08-28 13:50:00,
2013-08-28 08:51:00,71.7,66.9,29.97,ENE,65,4.7,5.8,85,0.00,CLR,,0.00,WeatherDisplay:10.37,2013-08-28 13:51:00,
2013-08-28 08:54:00,71.8,67.0,29.97,East,95,2.6,4.7,85,0.00,CLR,,0.00,WeatherDisplay:10.37,2013-08-28 13:54:00,
2013-08-28 08:55:00,71.6,66.8,29.97,NNE,27,2.2,5.8,85,0.00,CLR,,0.00,WeatherDisplay:10.37,2013-08-28 13:55:00,
2013-08-28 08:56:00,71.8,67.0,29.97,NNE,32,2.4,4.6,85,0.00,CLR,,0.00,WeatherDisplay:10.37,2013-08-28 13:56:00,
2013-08-28 08:59:00,71.9,67.1,29.97,SE,137,2.3,3.5,85,0.00,CLR,,0.00,WeatherDisplay:10.37,2013-08-28 13:59:00,
2013-08-28 09:00:00,71.9,66.8,29.97,SE,137,0.1,3.5,84,0.00,CLR,,0.00,WeatherDisplay:10.37,2013-08-28 14:00:00,
2013-08-28 09:01:00,71.9,66.8,29.97,NE,40,0.4,3.8,84,0.00,CLR,,0.00,WeatherDisplay:10.37,2013-08-28 14:01:00,
2013-08-28 09:05:00,71.9,66.8,29.97,NE,40,0.0,1.2,84,0.00,CLR,,0.00,WeatherDisplay:10.37,2013-08-28 14:05:00,
2013-08-28 09:06:00,72.0,66.9,29.97,NE,42,0.5,1.2,84,0.00,CLR,,0.00,WeatherDisplay:10.37,2013-08-28 14:06:00,
2013-08-28 09:07:00,72.0,66.9,29.97,NE,37,1.1,2.3,84,0.00,CLR,,0.00,WeatherDisplay:10.37,2013-08-28 14:07:00,
2013-08-28 09:10:00,72.1,67.0,29.97,ENE,64,0.9,2.7,84,0.00,CLR,,0.00,WeatherDisplay:10.37,2013-08-28 14:10:00,
2013-08-28 09:11:00,72.0,66.9,29.97,NE,48,2.1,2.4,84,0.00,CLR,,0.00,WeatherDisplay:10.37,2013-08-28 14:11:00,
2013-08-28 09:12:00,72.2,67.1,29.97,ENE,64,2.1,3.5,84,0.00,CLR,,0.00,WeatherDisplay:10.37,2013-08-28 14:12:00,
2013-08-28 09:15:00,72.3,67.2,29.97,ENE,64,1.3,2.3,84,0.00,CLR,,0.00,WeatherDisplay:10.37,2013-08-28 14:15:00,
2013-08-28 09:16:00,72.4,67.3,29.97,ENE,75,1.2,2.3,84,0.00,CLR,,0.00,WeatherDisplay:10.37,2013-08-28 14:16:00,
2013-08-28 09:17:00,72.4,67.3,29.97,ESE,116,0.9,2.3,84,0.00,CLR,,0.00,WeatherDisplay:10.37,2013-08-28 14:17:00,
2013-08-28 09:18:00,72.4,67.3,29.97,East,79,1.7,3.5,84,0.00,CLR,,0.00,WeatherDisplay:10.37,2013-08-28 14:18:00,
2013-08-28 09:20:00,72.5,67.4,29.97,SE,138,2.3,3.9,84,0.00,CLR,,0.00,WeatherDisplay:10.37,2013-08-28 14:20:00,
2013-08-28 09:21:00,72.4,67.3,29.97,ESE,104,3.0,4.1,84,0.00,CLR,,0.00,WeatherDisplay:10.37,2013-08-28 14:21:00,
2013-08-28 09:22:00,72.6,67.1,29.97,ESE,107,2.8,5.8,83,0.00,CLR,,0.00,WeatherDisplay:10.37,2013-08-28 14:22:00,
2013-08-28 09:24:00,72.6,67.1,29.97,NE,41,0.3,2.3,83,0.00,CLR,,0.00,WeatherDisplay:10.37,2013-08-28 14:24:00,
2013-08-28 09:25:00,72.6,67.1,29.97,NNE,23,1.5,3.5,83,0.00,CLR,,0.00,WeatherDisplay:10.37,2013-08-28 14:25:00,
2013-08-28 09:26:00,72.6,67.1,29.97,ENE,58,0.8,3.5,83,0.00,CLR,,0.00,WeatherDisplay:10.37,2013-08-28 14:26:00,
2013-08-28 09:27:00,72.7,67.2,29.97,ENE,58,0.0,0.0,83,0.00,CLR,,0.00,WeatherDisplay:10.37,2013-08-28 14:27:00,
2013-08-28 09:29:00,72.8,67.3,29.97,ENE,58,0.0,0.0,83,0.00,CLR,,0.00,WeatherDisplay:10.37,2013-08-28 14:29:00,
2013-08-28 09:30:00,72.8,67.3,29.97,SE,134,2.7,4.6,83,0.00,CLR,,0.00,WeatherDisplay:10.37,2013-08-28 14:30:00,
2013-08-28 09:31:00,72.8,67.3,29.97,ENE,69,1.1,4.6,83,0.00,CLR,,0.00,WeatherDisplay:10.37,2013-08-28 14:31:00,
2013-08-28 09:32:00,72.9,67.4,29.97,NE,54,0.6,2.3,83,0.00,CLR,,0.00,WeatherDisplay:10.37,2013-08-28 14:32:00,
2013-08-28 09:34:00,72.9,67.4,29.97,East,89,3.0,5.8,83,0.00,CLR,,0.00,WeatherDisplay:10.37,2013-08-28 14:34:00,
2013-08-28 09:36:00,73.1,67.3,29.98,SE,126,2.8,4.6,82,0.00,CLR,,0.00,WeatherDisplay:10.37,2013-08-28 14:36:00,
2013-08-28 09:37:00,73.1,67.3,29.98,NE,52,2.5,5.8,82,0.00,CLR,,0.00,WeatherDisplay:10.37,2013-08-28 14:37:00,
2013-08-28 09:39:00,73.2,67.4,29.97,SSE,164,2.5,4.6,82,0.00,CLR,,0.00,WeatherDisplay:10.37,2013-08-28 14:39:00,
2013-08-28 09:41:00,73.2,67.4,29.98,ENE,68,0.3,1.2,82,0.00,CLR,,0.00,WeatherDisplay:10.37,2013-08-28 14:41:00,
2013-08-28 09:42:00,73.3,67.5,29.98,ENE,68,0.1,1.2,82,0.00,CLR,,0.00,WeatherDisplay:10.37,2013-08-28 14:42:00,
2013-08-28 09:43:00,73.2,67.4,29.98,East,99,1.2,2.3,82,0.00,CLR,,0.00,WeatherDisplay:10.37,2013-08-28 14:43:00,
2013-08-28 09:45:00,73.3,67.5,29.98,NE,45,1.4,3.5,82,0.00,CLR,,0.00,WeatherDisplay:10.37,2013-08-28 14:45:00,
2013-08-28 09:46:00,73.3,67.5,29.98,ENE,69,1.6,3.1,82,0.00,CLR,,0.00,WeatherDisplay:10.37,2013-08-28 14:46:00,
2013-08-28 09:47:00,73.5,67.7,29.98,East,86,1.1,3.5,82,0.00,CLR,,0.00,WeatherDisplay:10.37,2013-08-28 14:47:00,
2013-08-28 09:48:00,73.3,67.5,29.98,ENE,65,1.5,3.0,82,0.00,CLR,,0.00,WeatherDisplay:10.37,2013-08-28 14:48:00,
2013-08-28 09:50:00,73.6,67.4,29.98,ENE,59,2.3,3.5,81,0.00,CLR,,0.00,WeatherDisplay:10.37,2013-08-28 14:50:00,
2013-08-28 09:51:00,73.7,67.5,29.98,NNE,20,1.7,3.5,81,0.00,CLR,,0.00,WeatherDisplay:10.37,2013-08-28 14:51:00,
2013-08-28 09:52:00,73.7,67.5,29.98,East,79,2.7,2.7,81,0.00,CLR,,0.00,WeatherDisplay:10.37,2013-08-28 14:52:00,
2013-08-28 09:53:00,73.9,67.7,29.98,NE,51,2.9,4.6,81,0.00,CLR,,0.00,WeatherDisplay:10.37,2013-08-28 14:53:00,
2013-08-28 09:55:00,74.0,67.4,29.98,East,85,3.5,5.8,80,0.00,CLR,,0.00,WeatherDisplay:10.37,2013-08-28 14:55:00,
2013-08-28 09:56:00,74.0,67.4,29.98,NE,45,2.8,5.8,80,0.00,CLR,,0.00,WeatherDisplay:10.37,2013-08-28 14:56:00,
2013-08-28 09:58:00,74.2,67.6,29.98,East,95,3.8,4.6,80,0.00,CLR,,0.00,WeatherDisplay:10.37,2013-08-28 14:58:00,
2013-08-28 10:01:00,74.1,67.5,29.98,NE,56,2.7,4.6,80,0.00,CLR,,0.00,WeatherDisplay:10.37,2013-08-28 15:01:00,
2013-08-28 10:03:00,74.3,67.4,29.98,East,85,0.0,3.5,79,0.00,CLR,,0.00,WeatherDisplay:10.37,2013-08-28 15:03:00,
2013-08-28 10:07:00,74.4,67.5,29.98,ESE,110,2.5,4.6,79,0.00,CLR,,0.00,WeatherDisplay:10.37,2013-08-28 15:07:00,
2013-08-28 10:08:00,74.5,67.6,29.99,ENE,59,1.4,3.5,79,0.00,CLR,,0.00,WeatherDisplay:10.37,2013-08-28 15:08:00,
2013-08-28 10:09:00,74.4,67.5,29.99,ESE,113,2.0,3.5,79,0.00,CLR,,0.00,WeatherDisplay:10.37,2013-08-28 15:09:00,
2013-08-28 10:12:00,74.5,67.6,29.99,SE,124,2.8,4.3,79,0.00,CLR,,0.00,WeatherDisplay:10.37,2013-08-28 15:12:00,
2013-08-28 10:13:00,74.6,67.7,29.99,NE,54,3.2,4.6,79,0.00,CLR,,0.00,WeatherDisplay:10.37,2013-08-28 15:13:00,
2013-08-28 10:14:00,74.6,67.7,29.99,NE,55,3.7,4.6,79,0.00,CLR,,0.00,WeatherDisplay:10.37,2013-08-28 15:14:00,
2013-08-28 10:15:00,74.6,67.7,29.99,ENE,72,2.0,4.6,79,0.00,CLR,,0.00,WeatherDisplay:10.37,2013-08-28 15:15:00,
2013-08-28 10:17:00,74.7,67.8,29.99,ESE,104,1.9,2.3,79,0.00,CLR,,0.00,WeatherDisplay:10.37,2013-08-28 15:17:00,
2013-08-28 10:18:00,74.7,67.4,29.99,NE,45,1.2,3.5,78,0.00,CLR,,0.00,WeatherDisplay:10.37,2013-08-28 15:18:00,
2013-08-28 10:19:00,74.7,67.4,29.99,NE,38,2.1,3.4,78,0.00,CLR,,0.00,WeatherDisplay:10.37,2013-08-28 15:19:00,
2013-08-28 10:20:00,74.7,67.4,29.99,East,97,2.2,4.6,78,0.00,CLR,,0.00,WeatherDisplay:10.37,2013-08-28 15:20:00,
2013-08-28 10:21:00,74.8,67.5,29.99,NNE,25,2.3,3.5,78,0.00,CLR,,0.00,WeatherDisplay:10.37,2013-08-28 15:21:00,
2013-08-28 10:22:00,74.8,67.5,29.99,ENE,58,2.9,4.6,78,0.00,CLR,,0.00,WeatherDisplay:10.37,2013-08-28 15:22:00,
2013-08-28 10:23:00,74.8,67.5,29.99,NNW,336,0.7,4.6,78,0.00,CLR,,0.00,WeatherDisplay:10.37,2013-08-28 15:23:00,
2013-08-28 10:25:00,74.8,67.5,29.99,East,83,1.5,2.3,78,0.00,CLR,,0.00,WeatherDisplay:10.37,2013-08-28 15:25:00,
2013-08-28 10:26:00,74.9,67.6,29.99,NE,49,0.6,2.3,78,0.00,CLR,,0.00,WeatherDisplay:10.37,2013-08-28 15:26:00,
2013-08-28 10:27:00,74.9,67.6,29.99,NE,41,0.1,1.2,78,0.00,CLR,,0.00,WeatherDisplay:10.37,2013-08-28 15:27:00,
2013-08-28 10:29:00,75.0,67.7,29.99,SE,124,2.7,4.6,78,0.00,CLR,,0.00,WeatherDisplay:10.37,2013-08-28 15:29:00,
2013-08-28 10:30:00,75.1,67.4,29.99,ENE,66,3.0,4.6,77,0.00,CLR,,0.00,WeatherDisplay:10.37,2013-08-28 15:30:00,
2013-08-28 10:31:00,75.1,67.4,29.99,ENE,72,0.7,4.6,77,0.00,CLR,,0.00,WeatherDisplay:10.37,2013-08-28 15:31:00,
2013-08-28 10:32:00,75.2,67.5,29.99,South,174,0.3,1.2,77,0.00,CLR,,0.00,WeatherDisplay:10.37,2013-08-28 15:32:00,
2013-08-28 10:33:00,75.3,67.6,29.99,ESE,116,2.3,3.5,77,0.00,CLR,,0.00,WeatherDisplay:10.37,2013-08-28 15:33:00,
2013-08-28 10:34:00,75.4,67.3,29.99,NNE,20,2.6,3.5,76,0.00,CLR,,0.00,WeatherDisplay:10.37,2013-08-28 15:34:00,
2013-08-28 10:35:00,75.4,67.3,29.99,ENE,64,1.3,2.3,76,0.00,CLR,,0.00,WeatherDisplay:10.37,2013-08-28 15:35:00,
2013-08-28 10:36:00,75.5,67.4,29.99,ENE,64,1.3,2.3,76,0.00,CLR,,0.00,WeatherDisplay:10.37,2013-08-28 15:36:00,
2013-08-28 10:38:00,75.4,67.3,29.99,NW,326,3.0,4.6,76,0.00,CLR,,0.00,WeatherDisplay:10.37,2013-08-28 15:38:00,
2013-08-28 10:39:00,75.5,67.0,29.99,ESE,117,2.7,4.6,75,0.00,CLR,,0.00,WeatherDisplay:10.37,2013-08-28 15:39:00,
2013-08-28 10:40:00,75.6,67.1,29.99,North,349,2.6,4.6,75,0.00,CLR,,0.00,WeatherDisplay:10.37,2013-08-28 15:40:00,
2013-08-28 10:41:00,75.7,67.2,29.99,NE,34,2.5,4.6,75,0.00,CLR,,0.00,WeatherDisplay:10.37,2013-08-28 15:41:00,
2013-08-28 10:42:00,75.6,67.1,29.99,NNE,31,2.0,3.5,75,0.00,CLR,,0.00,WeatherDisplay:10.37,2013-08-28 15:42:00,
2013-08-28 10:43:00,75.6,67.1,29.99,ENE,66,1.7,3.2,75,0.00,CLR,,0.00,WeatherDisplay:10.37,2013-08-28 15:43:00,
2013-08-28 10:45:00,75.5,67.0,29.99,ENE,59,1.3,4.6,75,0.00,CLR,,0.00,WeatherDisplay:10.37,2013-08-28 15:45:00,
2013-08-28 10:46:00,75.6,67.1,29.99,East,88,3.2,3.5,75,0.00,CLR,,0.00,WeatherDisplay:10.37,2013-08-28 15:46:00,
2013-08-28 10:47:00,75.6,67.1,30.00,SSE,154,1.4,5.8,75,0.00,CLR,,0.00,WeatherDisplay:10.37,2013-08-28 15:47:00,
2013-08-28 10:48:00,75.6,67.1,30.00,NNW,340,0.6,2.3,75,0.00,CLR,,0.00,WeatherDisplay:10.37,2013-08-28 15:48:00,
2013-08-28 10:49:00,75.5,67.0,30.00,NE,48,2.1,2.9,75,0.00,CLR,,0.00,WeatherDisplay:10.37,2013-08-28 15:49:00,
2013-08-28 10:50:00,75.5,67.0,30.00,NNE,27,2.1,4.6,75,0.00,CLR,,0.00,WeatherDisplay:10.37,2013-08-28 15:50:00,
2013-08-28 10:51:00,75.5,67.4,29.99,NNE,31,0.0,0.0,76,0.00,CLR,,0.00,WeatherDisplay:10.37,2013-08-28 15:51:00,
2013-08-28 10:52:00,75.6,67.5,29.99,NNE,31,0.0,0.0,76,0.00,CLR,,0.00,WeatherDisplay:10.37,2013-08-28 15:52:00,
2013-08-28 10:53:00,75.6,67.5,29.99,NNW,342,1.6,3.5,76,0.00,CLR,,0.00,WeatherDisplay:10.37,2013-08-28 15:53:00,
2013-08-28 10:54:00,75.6,67.1,29.99,East,82,4.4,5.8,75,0.00,CLR,,0.00,WeatherDisplay:10.37,2013-08-28 15:54:00,
2013-08-28 10:55:00,75.4,66.9,29.99,NNE,14,4.0,5.8,75,0.00,CLR,,0.00,WeatherDisplay:10.37,2013-08-28 15:55:00,
2013-08-28 10:57:00,75.4,66.9,29.99,ENE,61,0.3,2.3,75,0.00,CLR,,0.00,WeatherDisplay:10.37,2013-08-28 15:57:00,
2013-08-28 10:58:00,75.4,66.9,29.99,NE,40,1.8,3.6,75,0.00,CLR,,0.00,WeatherDisplay:10.37,2013-08-28 15:58:00,
2013-08-28 10:59:00,75.4,66.9,30.00,North,11,2.5,3.5,75,0.00,CLR,,0.00,WeatherDisplay:10.37,2013-08-28 15:59:00,
2013-08-28 11:00:00,75.5,67.0,30.00,ENE,59,2.1,3.5,75,0.00,CLR,,0.00,WeatherDisplay:10.37,2013-08-28 16:00:00,
2013-08-28 11:02:00,75.5,67.0,30.00,NNE,31,1.4,3.5,75,0.00,CLR,,0.00,WeatherDisplay:10.37,2013-08-28 16:02:00,
2013-08-28 11:03:00,75.5,67.0,29.99,NE,48,1.0,2.3,75,0.00,CLR,,0.00,WeatherDisplay:10.37,2013-08-28 16:03:00,
2013-08-28 11:04:00,75.5,67.0,29.99,NNW,333,1.9,2.3,75,0.00,CLR,,0.00,WeatherDisplay:10.37,2013-08-28 16:04:00,
2013-08-28 11:05:00,75.6,67.1,29.99,ENE,72,0.9,2.3,75,0.00,CLR,,0.00,WeatherDisplay:10.37,2013-08-28 16:05:00,
2013-08-28 11:07:00,75.7,67.2,30.00,NNW,340,0.2,2.7,75,0.00,CLR,,0.00,WeatherDisplay:10.37,2013-08-28 16:07:00,
2013-08-28 11:09:00,75.7,67.2,30.00,NNW,329,1.7,2.3,75,0.00,CLR,,0.00,WeatherDisplay:10.37,2013-08-28 16:09:00,
2013-08-28 11:10:00,75.8,67.3,30.00,NW,325,0.0,2.3,75,0.00,CLR,,0.00,WeatherDisplay:10.37,2013-08-28 16:10:00,
2013-08-28 11:13:00,75.9,67.4,30.00,NE,52,1.7,2.3,75,0.00,CLR,,0.00,WeatherDisplay:10.37,2013-08-28 16:13:00,
2013-08-28 11:14:00,76.0,67.5,30.00,NNE,24,2.6,4.6,75,0.00,CLR,,0.00,WeatherDisplay:10.37,2013-08-28 16:14:00,
2013-08-28 11:15:00,76.1,67.6,30.00,ENE,71,1.3,3.5,75,0.00,CLR,,0.00,WeatherDisplay:10.37,2013-08-28 16:15:00,
2013-08-28 11:16:00,76.1,67.6,30.00,NNW,343,1.3,2.3,75,0.00,CLR,,0.00,WeatherDisplay:10.37,2013-08-28 16:16:00,
2013-08-28 11:18:00,76.2,67.3,30.00,NE,47,2.8,4.6,74,0.00,CLR,,0.00,WeatherDisplay:10.37,2013-08-28 16:18:00,
2013-08-28 11:19:00,76.2,67.3,30.00,ENE,66,3.2,4.9,74,0.00,CLR,,0.00,WeatherDisplay:10.37,2013-08-28 16:19:00,
2013-08-28 11:20:00,76.4,67.5,30.00,SE,137,1.9,4.6,74,0.00,CLR,,0.00,WeatherDisplay:10.37,2013-08-28 16:20:00,
2013-08-28 11:21:00,76.4,67.5,30.00,SE,130,1.2,3.5,74,0.00,CLR,,0.00,WeatherDisplay:10.37,2013-08-28 16:21:00,
2013-08-28 11:23:00,76.4,67.5,30.00,East,90,4.2,5.8,74,0.00,CLR,,0.00,WeatherDisplay:10.37,2013-08-28 16:23:00,
2013-08-28 11:24:00,76.4,67.5,30.00,SE,131,2.2,7.1,74,0.00,CLR,,0.00,WeatherDisplay:10.37,2013-08-28 16:24:00,
2013-08-28 11:25:00,76.6,67.3,30.00,ENE,64,3.0,8.1,73,0.00,CLR,,0.00,WeatherDisplay:10.37,2013-08-28 16:25:00,
2013-08-28 11:26:00,76.6,67.3,30.00,NNW,344,2.8,4.6,73,0.00,CLR,,0.00,WeatherDisplay:10.37,2013-08-28 16:26:00,
2013-08-28 11:27:00,76.7,67.4,30.00,NE,55,2.4,3.5,73,0.00,CLR,,0.00,WeatherDisplay:10.37,2013-08-28 16:27:00,
2013-08-28 11:28:00,76.8,67.5,30.00,NNW,336,2.4,3.5,73,0.00,CLR,,0.00,WeatherDisplay:10.37,2013-08-28 16:28:00,
2013-08-28 11:29:00,76.7,67.4,30.00,NE,56,2.7,4.6,73,0.00,CLR,,0.00,WeatherDisplay:10.37,2013-08-28 16:29:00,
2013-08-28 11:30:00,76.8,67.5,30.00,North,349,2.7,4.6,73,0.00,CLR,,0.00,WeatherDisplay:10.37,2013-08-28 16:30:00,
2013-08-28 11:31:00,76.9,67.6,30.00,NW,312,2.6,4.6,73,0.00,CLR,,0.00,WeatherDisplay:10.37,2013-08-28 16:31:00,
2013-08-28 11:32:00,76.9,67.2,30.00,NW,308,3.6,4.6,72,0.00,CLR,,0.00,WeatherDisplay:10.37,2013-08-28 16:32:00,
2013-08-28 11:33:00,77.0,67.7,30.00,ENE,68,3.4,5.8,73,0.00,CLR,,0.00,WeatherDisplay:10.37,2013-08-28 16:33:00,
2013-08-28 11:34:00,77.0,67.3,30.00,North,10,3.3,4.6,72,0.00,CLR,,0.00,WeatherDisplay:10.37,2013-08-28 16:34:00,
2013-08-28 11:35:00,77.1,67.4,30.00,NNE,24,2.3,3.5,72,0.00,CLR,,0.00,WeatherDisplay:10.37,2013-08-28 16:35:00,
2013-08-28 11:36:00,77.1,67.4,30.00,NE,42,2.7,3.5,72,0.00,CLR,,0.00,WeatherDisplay:10.37,2013-08-28 16:36:00,
2013-08-28 11:37:00,77.1,67.4,30.00,NW,308,2.3,3.5,72,0.00,CLR,,0.00,WeatherDisplay:10.37,2013-08-28 16:37:00,
2013-08-28 11:38:00,77.2,67.5,30.00,North,349,2.9,3.5,72,0.00,CLR,,0.00,WeatherDisplay:10.37,2013-08-28 16:38:00,
2013-08-28 11:39:00,77.2,67.1,30.00,NW,325,4.2,4.2,71,0.00,CLR,,0.00,WeatherDisplay:10.37,2013-08-28 16:39:00,
2013-08-28 11:40:00,77.4,67.3,30.00,ENE,62,1.0,5.0,71,0.00,CLR,,0.00,WeatherDisplay:10.37,2013-08-28 16:40:00,
2013-08-28 11:42:00,77.5,67.4,30.00,NNE,24,2.1,5.8,71,0.00,CLR,,0.00,WeatherDisplay:10.37,2013-08-28 16:42:00,
2013-08-28 11:43:00,77.5,67.4,30.00,East,99,1.7,3.5,71,0.00,CLR,,0.00,WeatherDisplay:10.37,2013-08-28 16:43:00,
2013-08-28 11:44:00,77.7,67.5,30.00,NE,45,0.5,4.6,71,0.00,CLR,,0.00,WeatherDisplay:10.37,2013-08-28 16:44:00,
2013-08-28 11:45:00,77.8,67.6,30.00,NE,41,3.6,4.6,71,0.00,CLR,,0.00,WeatherDisplay:10.37,2013-08-28 16:45:00,
2013-08-28 11:47:00,78.0,67.4,30.00,NE,42,3.0,5.8,70,0.00,CLR,,0.00,WeatherDisplay:10.37,2013-08-28 16:47:00,
2013-08-28 11:48:00,78.0,67.0,30.00,NNE,17,0.4,1.2,69,0.00,CLR,,0.00,WeatherDisplay:10.37,2013-08-28 16:48:00,
2013-08-28 11:49:00,78.0,67.0,30.00,NNE,31,1.9,4.8,69,0.00,CLR,,0.00,WeatherDisplay:10.37,2013-08-28 16:49:00,
2013-08-28 11:51:00,78.1,67.1,30.00,NNW,342,3.7,5.8,69,0.00,CLR,,0.00,WeatherDisplay:10.37,2013-08-28 16:51:00,
2013-08-28 11:53:00,78.2,66.8,30.00,ESE,102,3.9,8.1,68,0.00,CLR,,0.00,WeatherDisplay:10.37,2013-08-28 16:53:00,
2013-08-28 11:54:00,78.2,66.8,30.00,NNE,13,4.7,6.9,68,0.00,CLR,,0.00,WeatherDisplay:10.37,2013-08-28 16:54:00,
2013-08-28 11:56:00,78.3,66.4,30.00,ENE,71,3.9,8.1,67,0.00,CLR,,0.00,WeatherDisplay:10.37,2013-08-28 16:56:00,
2013-08-28 11:58:00,78.3,66.9,30.00,NW,326,0.4,2.5,68,0.00,CLR,,0.00,WeatherDisplay:10.37,2013-08-28 16:58:00,
2013-08-28 11:59:00,78.3,66.9,30.00,SSE,157,1.5,4.0,68,0.00,CLR,,0.00,WeatherDisplay:10.37,2013-08-28 16:59:00,
2013-08-28 12:00:00,78.4,67.0,30.00,ESE,117,3.3,4.6,68,0.00,CLR,,0.00,WeatherDisplay:10.37,2013-08-28 17:00:00,
2013-08-28 12:01:00,78.3,66.9,30.00,NNE,14,4.0,5.8,68,0.00,CLR,,0.00,WeatherDisplay:10.37,2013-08-28 17:01:00,
2013-08-28 12:04:00,78.4,66.5,30.00,NE,47,4.2,9.2,67,0.00,CLR,,0.00,WeatherDisplay:10.37,2013-08-28 17:04:00,
2013-08-28 12:05:00,78.4,66.5,30.00,ENE,62,4.5,9.2,67,0.00,CLR,,0.00,WeatherDisplay:10.37,2013-08-28 17:05:00,
2013-08-28 12:06:00,78.5,66.6,30.00,ESE,102,4.7,6.9,67,0.00,CLR,,0.00,WeatherDisplay:10.37,2013-08-28 17:06:00,
2013-08-28 12:09:00,78.5,66.6,30.00,East,85,7.1,8.4,67,0.00,CLR,,0.00,WeatherDisplay:10.37,2013-08-28 17:09:00,
2013-08-28 12:10:00,78.7,66.4,30.00,NE,34,7.3,9.2,66,0.00,CLR,,0.00,WeatherDisplay:10.37,2013-08-28 17:10:00,
2013-08-28 12:11:00,78.7,66.4,30.00,NE,37,2.1,9.2,66,0.00,CLR,,0.00,WeatherDisplay:10.37,2013-08-28 17:11:00,
2013-08-28 12:12:00,78.8,66.5,30.00,North,4,4.8,6.9,66,0.00,CLR,,0.00,WeatherDisplay:10.37,2013-08-28 17:12:00,
2013-08-28 12:14:00,78.7,66.4,30.00,NE,41,4.4,8.1,66,0.00,CLR,,0.00,WeatherDisplay:10.37,2013-08-28 17:14:00,
2013-08-28 12:15:00,78.7,66.4,30.00,ESE,110,3.6,9.2,66,0.00,CLR,,0.00,WeatherDisplay:10.37,2013-08-28 17:15:00,
2013-08-28 12:16:00,78.8,66.5,30.00,NW,304,3.0,5.8,66,0.00,CLR,,0.00,WeatherDisplay:10.37,2013-08-28 17:16:00,
2013-08-28 12:17:00,78.8,66.5,30.00,NNE,32,1.0,2.3,66,0.00,CLR,,0.00,WeatherDisplay:10.37,2013-08-28 17:17:00,
2013-08-28 12:18:00,78.9,66.6,30.00,NNE,32,0.5,2.3,66,0.00,CLR,,0.00,WeatherDisplay:10.37,2013-08-28 17:18:00,
2013-08-28 12:20:00,78.9,66.6,30.00,North,360,3.8,5.8,66,0.00,CLR,,0.00,WeatherDisplay:10.37,2013-08-28 17:20:00,
2013-08-28 12:21:00,79.0,66.7,30.00,NE,40,3.4,4.6,66,0.00,CLR,,0.00,WeatherDisplay:10.37,2013-08-28 17:21:00,
2013-08-28 12:23:00,79.2,66.9,30.00,East,99,5.2,8.3,66,0.00,CLR,,0.00,WeatherDisplay:10.37,2013-08-28 17:23:00,
2013-08-28 12:24:00,79.1,66.8,30.00,South,169,4.6,8.1,66,0.00,CLR,,0.00,WeatherDisplay:10.37,2013-08-28 17:24:00,
2013-08-28 12:25:00,79.2,66.9,30.00,WNW,302,2.3,8.1,66,0.00,CLR,,0.00,WeatherDisplay:10.37,2013-08-28 17:25:00,
2013-08-28 12:26:00,79.3,66.5,30.00,North,8,4.4,5.8,65,0.00,CLR,,0.00,WeatherDisplay:10.37,2013-08-28 17:26:00,
2013-08-28 12:27:00,79.3,66.5,30.01,East,89,4.0,6.5,65,0.00,CLR,,0.00,WeatherDisplay:10.37,2013-08-28 17:27:00,
2013-08-28 12:28:00,79.3,66.5,30.01,North,360,3.5,5.8,65,0.00,CLR,,0.00,WeatherDisplay:10.37,2013-08-28 17:28:00,
2013-08-28 12:29:00,79.3,66.5,30.01,NNE,16,3.6,5.8,65,0.00,CLR,,0.00,WeatherDisplay:10.37,2013-08-28 17:29:00,
2013-08-28 12:30:00,79.3,66.5,30.01,East,80,3.8,8.1,65,0.00,CLR,,0.00,WeatherDisplay:10.37,2013-08-28 17:30:00,
2013-08-28 12:32:00,79.4,66.6,30.01,ENE,65,4.2,8.1,65,0.00,CLR,,0.00,WeatherDisplay:10.37,2013-08-28 17:32:00,
2013-08-28 12:34:00,79.3,66.5,30.01,East,88,3.5,8.1,65,0.00,CLR,,0.00,WeatherDisplay:10.37,2013-08-28 17:34:00,
2013-08-28 12:35:00,79.3,67.0,30.01,NW,316,2.1,6.9,66,0.00,CLR,,0.00,WeatherDisplay:10.37,2013-08-28 17:35:00,
2013-08-28 12:36:00,79.2,66.9,30.01,NW,316,0.4,3.5,66,0.00,CLR,,0.00,WeatherDisplay:10.37,2013-08-28 17:36:00,
2013-08-28 12:37:00,79.3,66.5,30.01,NNE,21,2.0,3.5,65,0.00,CLR,,0.00,WeatherDisplay:10.37,2013-08-28 17:37:00,
2013-08-28 12:40:00,79.3,66.5,30.00,ESE,102,3.1,5.8,65,0.00,CLR,,0.00,WeatherDisplay:10.37,2013-08-28 17:40:00,
2013-08-28 12:41:00,79.4,66.6,30.00,NE,45,3.1,5.8,65,0.00,CLR,,0.00,WeatherDisplay:10.37,2013-08-28 17:41:00,
2013-08-28 12:42:00,79.3,66.5,30.00,NE,56,1.6,3.5,65,0.00,CLR,,0.00,WeatherDisplay:10.37,2013-08-28 17:42:00,
2013-08-28 12:43:00,79.4,66.6,30.00,SE,126,1.1,3.5,65,0.00,CLR,,0.00,WeatherDisplay:10.37,2013-08-28 17:43:00,
2013-08-28 12:46:00,79.5,66.7,30.01,East,88,2.8,4.6,65,0.00,CLR,,0.00,WeatherDisplay:10.37,2013-08-28 17:46:00,
2013-08-28 12:47:00,79.5,66.7,30.01,South,172,2.6,6.9,65,0.00,CLR,,0.00,WeatherDisplay:10.37,2013-08-28 17:47:00,
2013-08-28 12:48:00,79.7,66.9,30.01,East,96,2.5,5.8,65,0.00,CLR,,0.00,WeatherDisplay:10.37,2013-08-28 17:48:00,
2013-08-28 12:50:00,79.8,67.0,30.01,NNE,17,3.0,4.6,65,0.00,CLR,,0.00,WeatherDisplay:10.37,2013-08-28 17:50:00,
2013-08-28 12:51:00,79.8,67.0,30.01,NNE,28,1.7,4.6,65,0.00,CLR,,0.00,WeatherDisplay:10.37,2013-08-28 17:51:00,
2013-08-28 12:52:00,79.9,66.6,30.00,NNE,18,0.7,2.3,64,0.00,CLR,,0.00,WeatherDisplay:10.37,2013-08-28 17:52:00,
2013-08-28 12:53:00,80.0,66.7,30.00,NNE,18,0.2,2.3,64,0.00,CLR,,0.00,WeatherDisplay:10.37,2013-08-28 17:53:00,
2013-08-28 12:56:00,80.1,67.3,30.01,NNE,32,1.9,2.3,65,0.00,CLR,,0.00,WeatherDisplay:10.37,2013-08-28 17:56:00,
2013-08-28 12:58:00,80.4,67.1,30.01,East,85,3.7,6.9,64,0.00,CLR,,0.00,WeatherDisplay:10.37,2013-08-28 17:58:00,
2013-08-28 12:59:00,80.5,67.2,30.01,ENE,72,3.6,5.8,64,0.00,CLR,,0.00,WeatherDisplay:10.37,2013-08-28 17:59:00,
2013-08-28 13:01:00,80.4,67.1,30.01,NE,55,0.3,2.8,64,0.00,CLR,,0.00,WeatherDisplay:10.37,2013-08-28 18:01:00,
2013-08-28 13:02:00,80.4,67.1,30.01,NE,40,0.7,2.3,64,0.00,CLR,,0.00,WeatherDisplay:10.37,2013-08-28 18:02:00,
2013-08-28 13:03:00,80.6,66.8,30.01,ESE,117,3.7,5.8,63,0.00,CLR,,0.00,WeatherDisplay:10.37,2013-08-28 18:03:00,
2013-08-28 13:06:00,80.6,66.8,30.01,NE,47,3.0,4.6,63,0.00,CLR,,0.00,WeatherDisplay:10.37,2013-08-28 18:06:00,
2013-08-28 13:07:00,80.7,66.9,30.01,East,92,3.6,6.9,63,0.00,CLR,,0.00,WeatherDisplay:10.37,2013-08-28 18:07:00,
2013-08-28 13:08:00,80.7,66.9,30.00,NNE,27,2.1,4.6,63,0.00,CLR,,0.00,WeatherDisplay:10.37,2013-08-28 18:08:00,
2013-08-28 13:09:00,80.7,66.9,30.00,East,85,2.0,4.6,63,0.00,CLR,,0.00,WeatherDisplay:10.37,2013-08-28 18:09:00,
2013-08-28 13:11:00,80.7,66.5,30.00,East,80,2.7,4.6,62,0.00,CLR,,0.00,WeatherDisplay:10.37,2013-08-28 18:11:00,
2013-08-28 13:12:00,80.8,66.6,30.00,NNE,17,2.3,4.6,62,0.00,CLR,,0.00,WeatherDisplay:10.37,2013-08-28 18:12:00,
2013-08-28 13:14:00,80.7,66.5,30.00,East,93,2.4,4.6,62,0.00,CLR,,0.00,WeatherDisplay:10.37,2013-08-28 18:14:00,
2013-08-28 13:17:00,80.7,66.9,30.00,SE,143,1.3,3.5,63,0.00,CLR,,0.00,WeatherDisplay:10.37,2013-08-28 18:17:00,
2013-08-28 13:18:00,80.7,66.5,30.00,NW,308,1.4,3.7,62,0.00,CLR,,0.00,WeatherDisplay:10.37,2013-08-28 18:18:00,
2013-08-28 13:19:00,80.7,66.5,30.00,NNE,16,3.1,3.5,62,0.00,CLR,,0.00,WeatherDisplay:10.37,2013-08-28 18:19:00,
2013-08-28 13:22:00,80.6,66.4,30.00,NNE,16,0.0,0.0,62,0.00,CLR,,0.00,WeatherDisplay:10.37,2013-08-28 18:22:00,
2013-08-28 13:23:00,80.6,66.4,30.00,SE,143,0.1,3.4,62,0.00,CLR,,0.00,WeatherDisplay:10.37,2013-08-28 18:23:00,
2013-08-28 13:24:00,80.6,66.8,30.00,ENE,61,1.6,1.6,63,0.00,CLR,,0.00,WeatherDisplay:10.37,2013-08-28 18:24:00,
2013-08-28 13:27:00,80.7,66.5,30.00,ESE,116,2.7,4.6,62,0.00,CLR,,0.00,WeatherDisplay:10.37,2013-08-28 18:27:00,
2013-08-28 13:28:00,80.7,66.5,30.00,NNE,31,3.5,6.9,62,0.00,CLR,,0.00,WeatherDisplay:10.37,2013-08-28 18:28:00,
2013-08-28 13:29:00,80.7,66.5,30.01,ENE,61,4.0,6.9,62,0.00,CLR,,0.00,WeatherDisplay:10.37,2013-08-28 18:29:00,
2013-08-28 13:32:00,80.7,66.5,30.01,NE,47,3.0,4.2,62,0.00,CLR,,0.00,WeatherDisplay:10.37,2013-08-28 18:32:00,
2013-08-28 13:33:00,80.7,66.5,30.01,North,349,2.8,4.6,62,0.00,CLR,,0.00,WeatherDisplay:10.37,2013-08-28 18:33:00,
2013-08-28 13:34:00,80.6,66.4,30.01,NNW,329,1.5,3.5,62,0.00,CLR,,0.00,WeatherDisplay:10.37,2013-08-28 18:34:00,
2013-08-28 13:35:00,80.7,66.5,30.01,NE,44,1.5,2.3,62,0.00,CLR,,0.00,WeatherDisplay:10.37,2013-08-28 18:35:00,
2013-08-28 13:37:00,80.8,67.0,30.01,South,176,0.0,2.3,63,0.00,CLR,,0.00,WeatherDisplay:10.37,2013-08-28 18:37:00,
2013-08-28 13:38:00,80.8,67.0,30.01,NNE,27,1.8,3.7,63,0.00,CLR,,0.00,WeatherDisplay:10.37,2013-08-28 18:38:00,
2013-08-28 13:39:00,80.8,66.6,30.01,NNE,25,1.3,4.6,62,0.00,CLR,,0.00,WeatherDisplay:10.37,2013-08-28 18:39:00,
2013-08-28 13:40:00,80.9,66.7,30.01,NNW,333,2.5,5.0,62,0.00,CLR,,0.00,WeatherDisplay:10.37,2013-08-28 18:40:00,
2013-08-28 13:42:00,80.9,66.7,30.01,NNW,333,3.1,5.8,62,0.00,CLR,,0.00,WeatherDisplay:10.37,2013-08-28 18:42:00,
2013-08-28 13:43:00,81.0,66.8,30.01,ENE,73,0.7,6.0,62,0.00,CLR,,0.00,WeatherDisplay:10.37,2013-08-28 18:43:00,
2013-08-28 13:44:00,81.0,66.8,30.01,East,82,1.2,6.0,62,0.00,CLR,,0.00,WeatherDisplay:10.37,2013-08-28 18:44:00,
2013-08-28 13:45:00,81.0,67.2,30.01,North,350,1.8,6.9,63,0.00,CLR,,0.00,WeatherDisplay:10.37,2013-08-28 18:45:00,
2013-08-28 13:47:00,81.1,67.3,30.01,ESE,113,1.2,6.3,63,0.00,CLR,,0.00,WeatherDisplay:10.37,2013-08-28 18:47:00,
2013-08-28 13:49:00,81.3,67.5,30.01,North,1,2.6,5.8,63,0.00,CLR,,0.00,WeatherDisplay:10.37,2013-08-28 18:49:00,
2013-08-28 13:50:00,81.3,67.5,30.01,NE,49,2.1,5.8,63,0.00,CLR,,0.00,WeatherDisplay:10.37,2013-08-28 18:50:00,
2013-08-28 13:51:00,81.4,67.1,30.01,NE,47,2.8,4.6,62,0.00,CLR,,0.00,WeatherDisplay:10.37,2013-08-28 18:51:00,
2013-08-28 13:52:00,81.4,67.1,30.01,ENE,72,2.9,8.1,62,0.00,CLR,,0.00,WeatherDisplay:10.37,2013-08-28 18:52:00,
2013-08-28 13:54:00,81.5,67.2,30.01,NNW,329,3.1,5.8,62,0.00,CLR,,0.00,WeatherDisplay:10.37,2013-08-28 18:54:00,
2013-08-28 13:55:00,81.5,67.2,30.01,NW,322,0.3,4.6,62,0.00,CLR,,0.00,WeatherDisplay:10.37,2013-08-28 18:55:00,
2013-08-28 13:57:00,81.4,67.1,30.01,NE,38,3.3,5.0,62,0.00,CLR,,0.00,WeatherDisplay:10.37,2013-08-28 18:57:00,
2013-08-28 13:58:00,81.4,67.1,30.01,East,99,3.7,5.8,62,0.00,CLR,,0.00,WeatherDisplay:10.37,2013-08-28 18:58:00,
2013-08-28 13:59:00,81.4,67.1,30.01,NE,38,3.0,5.8,62,0.00,CLR,,0.00,WeatherDisplay:10.37,2013-08-28 18:59:00,
2013-08-28 14:00:00,81.5,67.2,30.01,ENE,58,2.4,4.6,62,0.00,CLR,,0.00,WeatherDisplay:10.37,2013-08-28 19:00:00,
2013-08-28 14:01:00,81.5,67.2,30.01,East,85,2.5,4.9,62,0.00,CLR,,0.00,WeatherDisplay:10.37,2013-08-28 19:01:00,
2013-08-28 14:02:00,81.5,67.2,30.01,SE,144,2.8,6.3,62,0.00,CLR,,0.00,WeatherDisplay:10.37,2013-08-28 19:02:00,
2013-08-28 14:03:00,81.5,67.2,30.01,NW,316,3.4,6.9,62,0.00,CLR,,0.00,WeatherDisplay:10.37,2013-08-28 19:03:00,
2013-08-28 14:04:00,81.5,66.8,30.01,North,360,2.3,5.1,61,0.00,CLR,,0.00,WeatherDisplay:10.37,2013-08-28 19:04:00,
2013-08-28 14:05:00,81.4,66.7,30.01,East,93,2.9,4.6,61,0.00,CLR,,0.00,WeatherDisplay:10.37,2013-08-28 19:05:00,
2013-08-28 14:06:00,81.4,66.7,30.01,ESE,119,1.5,4.6,61,0.00,CLR,,0.00,WeatherDisplay:10.37,2013-08-28 19:06:00,
2013-08-28 14:08:00,81.4,66.7,30.01,SE,141,0.5,2.6,61,0.00,CLR,,0.00,WeatherDisplay:10.37,2013-08-28 19:08:00,
2013-08-28 14:10:00,81.5,67.2,30.01,NE,48,1.7,4.6,62,0.00,CLR,,0.00,WeatherDisplay:10.37,2013-08-28 19:10:00,
2013-08-28 14:11:00,81.4,67.1,30.01,ENE,58,2.4,3.5,62,0.00,CLR,,0.00,WeatherDisplay:10.37,2013-08-28 19:11:00,
2013-08-28 14:12:00,81.3,66.6,30.01,NNE,30,3.5,4.6,61,0.00,CLR,,0.00,WeatherDisplay:10.37,2013-08-28 19:12:00,
2013-08-28 14:13:00,81.5,66.8,30.01,NE,41,1.8,4.6,61,0.00,CLR,,0.00,WeatherDisplay:10.37,2013-08-28 19:13:00,
2013-08-28 14:15:00,81.4,66.7,30.01,North,349,1.4,3.9,61,0.00,CLR,,0.00,WeatherDisplay:10.37,2013-08-28 19:15:00,
2013-08-28 14:16:00,81.4,66.7,30.01,NNE,27,3.1,3.5,61,0.00,CLR,,0.00,WeatherDisplay:10.37,2013-08-28 19:16:00,
2013-08-28 14:17:00,81.3,66.6,30.01,ENE,59,1.6,4.6,61,0.00,CLR,,0.00,WeatherDisplay:10.37,2013-08-28 19:17:00,
2013-08-28 14:18:00,81.3,66.6,30.01,ENE,59,0.2,3.5,61,0.00,CLR,,0.00,WeatherDisplay:10.37,2013-08-28 19:18:00,
2013-08-28 14:19:00,81.2,66.5,30.01,ENE,59,0.0,0.0,61,0.00,CLR,,0.00,WeatherDisplay:10.37,2013-08-28 19:19:00,
2013-08-28 14:20:00,81.3,66.6,30.01,North,4,3.6,6.9,61,0.00,CLR,,0.00,WeatherDisplay:10.37,2013-08-28 19:20:00,
2013-08-28 14:21:00,81.2,66.5,30.01,NNE,27,2.9,4.6,61,0.00,CLR,,0.00,WeatherDisplay:10.37,2013-08-28 19:21:00,
2013-08-28 14:23:00,81.4,67.1,30.00,NE,35,0.8,2.3,62,0.00,CLR,,0.00,WeatherDisplay:10.37,2013-08-28 19:23:00,
2013-08-28 14:24:00,81.5,67.2,30.00,NNE,24,1.1,2.3,62,0.00,CLR,,0.00,WeatherDisplay:10.37,2013-08-28 19:24:00,
2013-08-28 14:25:00,81.4,66.7,30.00,NE,37,2.0,4.6,61,0.00,CLR,,0.00,WeatherDisplay:10.37,2013-08-28 19:25:00,
2013-08-28 14:26:00,81.7,66.9,30.00,NE,37,0.8,2.6,61,0.00,CLR,,0.00,WeatherDisplay:10.37,2013-08-28 19:26:00,
2013-08-28 14:27:00,81.7,66.9,30.00,NNE,25,1.0,2.7,61,0.00,CLR,,0.00,WeatherDisplay:10.37,2013-08-28 19:27:00,
2013-08-28 14:29:00,81.9,66.6,30.00,NNW,336,2.1,3.5,60,0.00,CLR,,0.00,WeatherDisplay:10.37,2013-08-28 19:29:00,
2013-08-28 14:30:00,82.2,66.4,30.00,NNE,18,2.0,3.5,59,0.00,CLR,,0.00,WeatherDisplay:10.37,2013-08-28 19:30:00,
2013-08-28 14:32:00,82.4,66.6,30.00,NE,45,1.5,2.3,59,0.00,CLR,,0.00,WeatherDisplay:10.37,2013-08-28 19:32:00,
2013-08-28 14:34:00,82.6,66.8,30.00,NNW,346,2.5,4.6,59,0.00,CLR,,0.00,WeatherDisplay:10.37,2013-08-28 19:34:00,
2013-08-28 14:36:00,82.7,66.4,30.00,SE,133,4.5,6.3,58,0.00,CLR,,0.00,WeatherDisplay:10.37,2013-08-28 19:36:00,
2013-08-28 14:37:00,82.7,66.9,30.00,East,82,3.9,8.1,59,0.00,CLR,,0.00,WeatherDisplay:10.37,2013-08-28 19:37:00,
2013-08-28 14:39:00,82.8,66.5,30.00,SE,124,2.7,6.9,58,0.00,CLR,,0.00,WeatherDisplay:10.37,2013-08-28 19:39:00,
2013-08-28 14:41:00,82.8,67.0,30.00,ESE,102,4.9,8.1,59,0.00,CLR,,0.00,WeatherDisplay:10.37,2013-08-28 19:41:00,
2013-08-28 14:42:00,82.8,67.0,30.00,SE,128,0.6,6.9,59,0.00,CLR,,0.00,WeatherDisplay:10.37,2013-08-28 19:42:00,
2013-08-28 14:43:00,82.8,67.0,30.00,ENE,68,0.3,3.9,59,0.00,CLR,,0.00,WeatherDisplay:10.37,2013-08-28 19:43:00,
2013-08-28 14:44:00,83.0,67.2,30.00,ENE,62,2.8,4.6,59,0.00,CLR,,0.00,WeatherDisplay:10.37,2013-08-28 19:44:00,
2013-08-28 14:45:00,82.8,67.0,30.00,NNW,335,2.7,4.6,59,0.00,CLR,,0.00,WeatherDisplay:10.37,2013-08-28 19:45:00,
2013-08-28 14:46:00,83.0,66.7,30.00,NNW,332,1.9,3.5,58,0.00,CLR,,0.00,WeatherDisplay:10.37,2013-08-28 19:46:00,
2013-08-28 14:47:00,83.0,66.7,30.00,NE,41,2.1,3.0,58,0.00,CLR,,0.00,WeatherDisplay:10.37,2013-08-28 19:47:00,
2013-08-28 14:48:00,82.9,66.6,30.00,West,270,2.0,4.6,58,0.00,CLR,,0.00,WeatherDisplay:10.37,2013-08-28 19:48:00,
2013-08-28 14:49:00,83.0,66.7,30.00,NNE,30,1.1,3.5,58,0.00,CLR,,0.00,WeatherDisplay:10.37,2013-08-28 19:49:00,
2013-08-28 14:50:00,83.0,66.7,30.00,SSE,158,1.3,3.5,58,0.00,CLR,,0.00,WeatherDisplay:10.37,2013-08-28 19:50:00,
2013-08-28 14:51:00,82.9,66.6,30.00,East,93,3.5,5.8,58,0.00,CLR,,0.00,WeatherDisplay:10.37,2013-08-28 19:51:00,
2013-08-28 14:52:00,82.9,67.1,30.00,NNE,31,2.8,5.8,59,0.00,CLR,,0.00,WeatherDisplay:10.37,2013-08-28 19:52:00,
2013-08-28 14:53:00,82.9,67.1,30.00,NE,37,3.6,5.8,59,0.00,CLR,,0.00,WeatherDisplay:10.37,2013-08-28 19:53:00,
2013-08-28 14:54:00,82.8,67.0,30.00,North,360,0.9,3.8,59,0.00,CLR,,0.00,WeatherDisplay:10.37,2013-08-28 19:54:00,
2013-08-28 14:55:00,82.6,66.8,30.00,NNW,339,3.6,6.9,59,0.00,CLR,,0.00,WeatherDisplay:10.37,2013-08-28 19:55:00,
2013-08-28 14:56:00,82.7,66.9,30.00,ESE,102,2.8,6.9,59,0.00,CLR,,0.00,WeatherDisplay:10.37,2013-08-28 19:56:00,
2013-08-28 14:57:00,82.6,66.8,30.00,NNE,14,1.7,4.6,59,0.00,CLR,,0.00,WeatherDisplay:10.37,2013-08-28 19:57:00,
2013-08-28 14:59:00,82.6,67.3,30.00,WNW,302,0.6,2.3,60,0.00,CLR,,0.00,WeatherDisplay:10.37,2013-08-28 19:59:00,
2013-08-28 15:00:00,82.5,67.2,30.00,ENE,62,1.3,2.9,60,0.00,CLR,,0.00,WeatherDisplay:10.37,2013-08-28 20:00:00,
2013-08-28 15:01:00,82.5,66.7,30.00,ENE,66,1.7,3.5,59,0.00,CLR,,0.00,WeatherDisplay:10.37,2013-08-28 20:01:00,
2013-08-28 15:02:00,82.7,66.9,30.00,NNE,21,2.9,4.6,59,0.00,CLR,,0.00,WeatherDisplay:10.37,2013-08-28 20:02:00,
2013-08-28 15:03:00,82.5,66.7,30.00,NE,44,3.9,4.9,59,0.00,CLR,,0.00,WeatherDisplay:10.37,2013-08-28 20:03:00,
2013-08-28 15:05:00,82.5,66.7,30.00,East,80,1.4,4.4,59,0.00,CLR,,0.00,WeatherDisplay:10.37,2013-08-28 20:05:00,
2013-08-28 15:06:00,82.5,67.2,30.00,ENE,78,1.8,4.6,60,0.00,CLR,,0.00,WeatherDisplay:10.37,2013-08-28 20:06:00,
2013-08-28 15:07:00,82.6,67.3,30.00,NNW,342,2.1,3.5,60,0.00,CLR,,0.00,WeatherDisplay:10.37,2013-08-28 20:07:00,
2013-08-28 15:08:00,82.6,67.3,30.00,ESE,117,2.4,4.6,60,0.00,CLR,,0.00,WeatherDisplay:10.37,2013-08-28 20:08:00,
2013-08-28 15:10:00,82.9,67.6,30.00,North,11,1.6,5.8,60,0.00,CLR,,0.00,WeatherDisplay:10.37,2013-08-28 20:10:00,
2013-08-28 15:12:00,83.1,67.3,30.00,SE,128,4.3,6.9,59,0.00,CLR,,0.00,WeatherDisplay:10.37,2013-08-28 20:12:00,
2013-08-28 15:13:00,83.2,67.4,30.00,East,88,4.4,6.9,59,0.00,CLR,,0.00,WeatherDisplay:10.37,2013-08-28 20:13:00,
2013-08-28 15:14:00,83.4,68.1,30.00,SE,128,3.1,5.8,60,0.00,CLR,,0.00,WeatherDisplay:10.37,2013-08-28 20:14:00,
2013-08-28 15:15:00,83.4,67.6,30.00,NE,49,3.1,4.6,59,0.00,CLR,,0.00,WeatherDisplay:10.37,2013-08-28 20:15:00,
2013-08-28 15:16:00,83.6,67.3,30.00,East,93,2.4,5.8,58,0.00,CLR,,0.00,WeatherDisplay:10.37,2013-08-28 20:16:00,
2013-08-28 15:17:00,83.7,66.8,30.00,ENE,78,2.5,4.6,57,0.00,CLR,,0.00,WeatherDisplay:10.37,2013-08-28 20:17:00,
2013-08-28 15:18:00,83.8,66.9,30.00,NE,38,3.3,5.2,57,0.00,CLR,,0.00,WeatherDisplay:10.37,2013-08-28 20:18:00,
2013-08-28 15:20:00,84.2,67.3,30.00,East,100,4.8,6.9,57,0.00,CLR,,0.00,WeatherDisplay:10.37,2013-08-28 20:20:00,
2013-08-28 15:21:00,84.2,67.3,30.00,NNE,32,3.7,8.1,57,0.00,CLR,,0.00,WeatherDisplay:10.37,2013-08-28 20:21:00,
2013-08-28 15:22:00,84.5,67.6,30.00,NE,56,4.4,5.8,57,0.00,CLR,,0.00,WeatherDisplay:10.37,2013-08-28 20:22:00,
2013-08-28 15:23:00,84.6,67.7,30.00,ESE,102,4.7,8.1,57,0.00,CLR,,0.00,WeatherDisplay:10.37,2013-08-28 20:23:00,
2013-08-28 15:25:00,84.8,67.4,30.00,East,96,3.0,3.5,56,0.00,CLR,,0.00,WeatherDisplay:10.37,2013-08-28 20:25:00,
2013-08-28 15:26:00,84.8,67.4,30.00,East,83,3.0,5.8,56,0.00,CLR,,0.00,WeatherDisplay:10.37,2013-08-28 20:26:00,
2013-08-28 15:27:00,84.9,67.5,30.00,ESE,112,0.8,5.8,56,0.00,CLR,,0.00,WeatherDisplay:10.37,2013-08-28 20:27:00,
2013-08-28 15:28:00,85.0,67.5,30.00,SSE,147,3.9,5.8,56,0.00,CLR,,0.00,WeatherDisplay:10.37,2013-08-28 20:28:00,
2013-08-28 15:30:00,85.2,67.2,30.00,SE,136,2.1,4.6,55,0.00,CLR,,0.00,WeatherDisplay:10.37,2013-08-28 20:30:00,
2013-08-28 15:32:00,85.4,66.9,30.00,South,191,1.9,5.8,54,0.00,CLR,,0.00,WeatherDisplay:10.37,2013-08-28 20:32:00,
2013-08-28 15:33:00,85.5,67.5,30.00,ESE,110,3.6,6.9,55,0.00,CLR,,0.00,WeatherDisplay:10.37,2013-08-28 20:33:00,
2013-08-28 15:35:00,85.6,67.0,30.00,NE,44,2.4,5.8,54,0.00,CLR,,0.00,WeatherDisplay:10.37,2013-08-28 20:35:00,
2013-08-28 15:37:00,85.6,67.0,30.00,NE,42,5.4,8.1,54,0.00,CLR,,0.00,WeatherDisplay:10.37,2013-08-28 20:37:00,
2013-08-28 15:38:00,85.6,66.5,30.00,NNE,25,4.1,6.9,53,0.00,CLR,,0.00,WeatherDisplay:10.37,2013-08-28 20:38:00,
2013-08-28 15:40:00,85.6,67.0,30.00,ESE,109,2.6,5.8,54,0.00,CLR,,0.00,WeatherDisplay:10.37,2013-08-28 20:40:00,
2013-08-28 15:41:00,85.7,67.1,30.00,ENE,78,3.3,5.8,54,0.00,CLR,,0.00,WeatherDisplay:10.37,2013-08-28 20:41:00,
2013-08-28 15:43:00,85.8,66.7,30.00,East,79,5.1,8.1,53,0.00,CLR,,0.00,WeatherDisplay:10.37,2013-08-28 20:43:00,
2013-08-28 15:45:00,85.8,66.7,30.00,SSE,155,1.8,6.9,53,0.00,CLR,,0.00,WeatherDisplay:10.37,2013-08-28 20:45:00,
2013-08-28 15:46:00,86.0,67.4,30.00,North,356,2.2,4.6,54,0.00,CLR,,0.00,WeatherDisplay:10.37,2013-08-28 20:46:00,
2013-08-28 15:48:00,86.1,67.5,30.00,SE,126,4.5,5.8,54,0.00,CLR,,0.00,WeatherDisplay:10.37,2013-08-28 20:48:00,
2013-08-28 15:50:00,86.3,67.2,30.00,NE,55,4.9,8.1,53,0.00,CLR,,0.00,WeatherDisplay:10.37,2013-08-28 20:50:00,
2013-08-28 15:52:00,86.3,66.6,30.00,NE,35,2.4,6.9,52,0.00,CLR,,0.00,WeatherDisplay:10.37,2013-08-28 20:52:00,
2013-08-28 15:53:00,86.3,66.6,30.00,ENE,62,4.1,5.8,52,0.00,CLR,,0.00,WeatherDisplay:10.37,2013-08-28 20:53:00,
2013-08-28 15:54:00,86.3,66.6,30.00,ENE,65,3.5,5.8,52,0.00,CLR,,0.00,WeatherDisplay:10.37,2013-08-28 20:54:00,
2013-08-28 15:55:00,86.3,66.6,30.00,NE,47,4.4,4.7,52,0.00,CLR,,0.00,WeatherDisplay:10.37,2013-08-28 20:55:00,
2013-08-28 15:57:00,86.2,66.5,30.00,SE,130,2.7,5.0,52,0.00,CLR,,0.00,WeatherDisplay:10.37,2013-08-28 20:57:00,
2013-08-28 15:58:00,86.1,67.0,30.00,SE,130,3.1,7.1,53,0.00,CLR,,0.00,WeatherDisplay:10.37,2013-08-28 20:58:00,
2013-08-28 15:59:00,86.1,67.0,30.00,ESE,109,4.8,5.8,53,0.00,CLR,,0.00,WeatherDisplay:10.37,2013-08-28 20:59:00,
2013-08-28 16:00:00,86.1,67.0,30.00,NE,42,3.7,8.1,53,0.00,CLR,,0.00,WeatherDisplay:10.37,2013-08-28 21:00:00,
2013-08-28 16:03:00,86.1,67.0,30.00,SSE,150,3.8,5.8,53,0.00,CLR,,0.00,WeatherDisplay:10.37,2013-08-28 21:03:00,
2013-08-28 16:04:00,86.2,66.5,30.00,ESE,116,1.3,5.8,52,0.00,CLR,,0.00,WeatherDisplay:10.37,2013-08-28 21:04:00,
2013-08-28 16:05:00,86.3,67.2,30.00,SE,138,2.1,3.5,53,0.00,CLR,,0.00,WeatherDisplay:10.37,2013-08-28 21:05:00,
2013-08-28 16:07:00,86.4,67.2,30.00,East,83,0.1,2.3,53,0.00,CLR,,0.00,WeatherDisplay:10.37,2013-08-28 21:07:00,
2013-08-28 16:08:00,86.5,66.8,30.00,East,83,0.0,2.3,52,0.00,CLR,,0.00,WeatherDisplay:10.37,2013-08-28 21:08:00,
2013-08-28 16:09:00,86.5,67.3,30.00,ENE,75,0.8,2.3,53,0.00,CLR,,0.00,WeatherDisplay:10.37,2013-08-28 21:09:00,
2013-08-28 16:10:00,86.6,67.4,30.00,NNE,24,1.6,3.5,53,0.00,CLR,,0.00,WeatherDisplay:10.37,2013-08-28 21:10:00,
2013-08-28 16:11:00,86.6,67.4,30.00,NNE,24,1.3,3.5,53,0.00,CLR,,0.00,WeatherDisplay:10.37,2013-08-28 21:11:00,
2013-08-28 16:13:00,86.8,67.6,30.00,ESE,109,1.9,6.1,53,0.00,CLR,,0.00,WeatherDisplay:10.37,2013-08-28 21:13:00,
2013-08-28 16:14:00,86.9,67.2,30.00,East,83,2.8,6.0,52,0.00,CLR,,0.00,WeatherDisplay:10.37,2013-08-28 21:14:00,
2013-08-28 16:16:00,87.1,66.8,30.00,NNE,17,6.4,11.5,51,0.00,CLR,,0.00,WeatherDisplay:10.37,2013-08-28 21:16:00,
2013-08-28 16:18:00,87.3,66.4,30.00,ENE,61,4.4,6.9,50,0.00,CLR,,0.00,WeatherDisplay:10.37,2013-08-28 21:18:00,
2013-08-28 16:19:00,87.2,66.3,30.00,ENE,65,3.5,6.9,50,0.00,CLR,,0.00,WeatherDisplay:10.37,2013-08-28 21:19:00,
2013-08-28 16:21:00,87.0,66.1,30.00,SE,145,2.1,5.6,50,0.00,CLR,,0.00,WeatherDisplay:10.37,2013-08-28 21:21:00,
2013-08-28 16:22:00,86.9,66.0,30.00,East,83,3.9,6.9,50,0.00,CLR,,0.00,WeatherDisplay:10.37,2013-08-28 21:22:00,
2013-08-28 16:24:00,86.6,65.7,30.00,ESE,109,2.1,4.6,50,0.00,CLR,,0.00,WeatherDisplay:10.37,2013-08-28 21:24:00,
2013-08-28 16:26:00,86.5,66.2,30.00,East,79,1.1,1.9,51,0.00,CLR,,0.00,WeatherDisplay:10.37,2013-08-28 21:26:00,
2013-08-28 16:27:00,86.3,66.6,30.00,East,95,2.1,3.5,52,0.00,CLR,,0.00,WeatherDisplay:10.37,2013-08-28 21:27:00,
2013-08-28 16:29:00,86.3,66.6,30.00,ENE,71,0.9,2.3,52,0.00,CLR,,0.00,WeatherDisplay:10.37,2013-08-28 21:29:00,
2013-08-28 16:30:00,86.2,66.5,30.00,ENE,71,0.1,1.2,52,0.00,CLR,,0.00,WeatherDisplay:10.37,2013-08-28 21:30:00,
2013-08-28 16:31:00,86.3,66.6,30.00,ENE,65,2.1,4.7,52,0.00,CLR,,0.00,WeatherDisplay:10.37,2013-08-28 21:31:00,
2013-08-28 16:34:00,86.2,66.5,30.00,SE,138,1.0,4.6,52,0.00,CLR,,0.00,WeatherDisplay:10.37,2013-08-28 21:34:00,
2013-08-28 16:35:00,86.2,66.5,30.00,ESE,114,1.8,4.6,52,0.00,CLR,,0.00,WeatherDisplay:10.37,2013-08-28 21:35:00,
2013-08-28 16:36:00,86.2,66.5,30.00,East,79,4.2,5.8,52,0.00,CLR,,0.00,WeatherDisplay:10.37,2013-08-28 21:36:00,
2013-08-28 16:39:00,86.3,67.2,30.00,East,99,2.8,4.1,53,0.00,CLR,,0.00,WeatherDisplay:10.37,2013-08-28 21:39:00,
2013-08-28 16:40:00,86.3,66.6,30.00,East,89,3.1,5.8,52,0.00,CLR,,0.00,WeatherDisplay:10.37,2013-08-28 21:40:00,
2013-08-28 16:41:00,86.3,66.6,30.00,NE,42,3.7,4.6,52,0.00,CLR,,0.00,WeatherDisplay:10.37,2013-08-28 21:41:00,
2013-08-28 16:44:00,86.0,66.3,30.00,SE,131,1.8,2.3,52,0.00,CLR,,0.00,WeatherDisplay:10.37,2013-08-28 21:44:00,
2013-08-28 16:45:00,85.7,66.0,30.00,East,97,1.0,3.9,52,0.00,CLR,,0.00,WeatherDisplay:10.37,2013-08-28 21:45:00,
2013-08-28 16:46:00,85.7,66.0,30.00,NNE,18,3.0,5.8,52,0.00,CLR,,0.00,WeatherDisplay:10.37,2013-08-28 21:46:00,
2013-08-28 16:47:00,85.5,65.9,30.00,NNE,31,0.1,3.5,52,0.00,CLR,,0.00,WeatherDisplay:10.37,2013-08-28 21:47:00,
2013-08-28 16:49:00,85.3,66.2,30.00,ESE,123,2.4,5.8,53,0.00,CLR,,0.00,WeatherDisplay:10.37,2013-08-28 21:49:00,
2013-08-28 16:50:00,85.2,66.1,30.00,ENE,73,3.4,5.8,53,0.00,CLR,,0.00,WeatherDisplay:10.37,2013-08-28 21:50:00,
2013-08-28 16:51:00,85.1,66.0,30.00,North,7,2.6,4.6,53,0.00,CLR,,0.00,WeatherDisplay:10.37,2013-08-28 21:51:00,
2013-08-28 16:52:00,85.1,66.0,30.00,SE,144,2.2,4.6,53,0.00,CLR,,0.00,WeatherDisplay:10.37,2013-08-28 21:52:00,
2013-08-28 16:55:00,85.0,66.5,30.00,SE,144,0.0,0.0,54,0.00,CLR,,0.00,WeatherDisplay:10.37,2013-08-28 21:55:00,
2013-08-28 16:56:00,85.0,66.0,30.00,SE,144,0.0,0.0,53,0.00,CLR,,0.00,WeatherDisplay:10.37,2013-08-28 21:56:00,
2013-08-28 16:57:00,85.1,66.0,30.00,ENE,76,3.2,6.5,53,0.00,CLR,,0.00,WeatherDisplay:10.37,2013-08-28 21:57:00,
2013-08-28 17:00:00,85.1,66.6,30.00,NNE,25,2.8,6.9,54,0.00,CLR,,0.00,WeatherDisplay:10.37,2013-08-28 22:00:00,
2013-08-28 17:01:00,85.1,66.0,30.01,ENE,58,2.7,5.8,53,0.00,CLR,,0.00,WeatherDisplay:10.37,2013-08-28 22:01:00,
2013-08-28 17:02:00,85.0,66.0,30.01,East,90,2.4,4.6,53,0.00,CLR,,0.00,WeatherDisplay:10.37,2013-08-28 22:02:00,
2013-08-28 17:03:00,85.0,66.5,30.00,North,360,3.1,5.3,54,0.00,CLR,,0.00,WeatherDisplay:10.37,2013-08-28 22:03:00,
2013-08-28 17:05:00,85.0,66.0,30.00,East,95,4.2,6.9,53,0.00,CLR,,0.00,WeatherDisplay:10.37,2013-08-28 22:05:00,
2013-08-28 17:06:00,85.1,66.0,30.00,NE,51,4.0,5.8,53,0.00,CLR,,0.00,WeatherDisplay:10.37,2013-08-28 22:06:00,
2013-08-28 17:07:00,85.0,66.0,30.00,North,11,3.2,4.6,53,0.00,CLR,,0.00,WeatherDisplay:10.37,2013-08-28 22:07:00,
2013-08-28 17:08:00,84.8,65.8,30.00,NNE,24,2.5,4.6,53,0.00,CLR,,0.00,WeatherDisplay:10.37,2013-08-28 22:08:00,
2013-08-28 17:10:00,84.7,65.7,30.00,East,96,0.2,1.2,53,0.00,CLR,,0.00,WeatherDisplay:10.37,2013-08-28 22:10:00,
2013-08-28 17:11:00,84.6,66.1,30.00,ESE,121,1.0,4.2,54,0.00,CLR,,0.00,WeatherDisplay:10.37,2013-08-28 22:11:00,
2013-08-28 17:12:00,84.6,66.1,30.00,ESE,104,2.2,4.6,54,0.00,CLR,,0.00,WeatherDisplay:10.37,2013-08-28 22:12:00,
2013-08-28 17:14:00,84.5,66.0,30.00,ESE,107,2.1,2.8,54,0.00,CLR,,0.00,WeatherDisplay:10.37,2013-08-28 22:14:00,
2013-08-28 17:15:00,84.3,65.8,30.01,SE,131,0.3,1.2,54,0.00,CLR,,0.00,WeatherDisplay:10.37,2013-08-28 22:15:00,
2013-08-28 17:16:00,84.2,66.3,30.00,NE,42,1.1,3.5,55,0.00,CLR,,0.00,WeatherDisplay:10.37,2013-08-28 22:16:00,
2013-08-28 17:17:00,84.1,65.7,30.00,ESE,112,0.7,3.5,54,0.00,CLR,,0.00,WeatherDisplay:10.37,2013-08-28 22:17:00,
2013-08-28 17:18:00,84.0,65.6,30.01,ESE,114,1.5,2.9,54,0.00,CLR,,0.00,WeatherDisplay:10.37,2013-08-28 22:18:00,
2013-08-28 17:19:00,84.0,65.6,30.01,SE,133,0.4,2.3,54,0.00,CLR,,0.00,WeatherDisplay:10.37,2013-08-28 22:19:00,
2013-08-28 17:20:00,83.9,66.0,30.01,SE,130,1.3,4.5,55,0.00,CLR,,0.00,WeatherDisplay:10.37,2013-08-28 22:20:00,
2013-08-28 17:21:00,83.7,65.8,30.01,East,79,2.2,4.6,55,0.00,CLR,,0.00,WeatherDisplay:10.37,2013-08-28 22:21:00,
2013-08-28 17:22:00,83.6,65.7,30.01,NNE,18,0.9,4.6,55,0.00,CLR,,0.00,WeatherDisplay:10.37,2013-08-28 22:22:00,
2013-08-28 17:24:00,83.5,66.2,30.00,ESE,117,1.9,3.0,56,0.00,CLR,,0.00,WeatherDisplay:10.37,2013-08-28 22:24:00,
2013-08-28 17:25:00,83.6,66.2,30.00,East,97,2.9,4.6,56,0.00,CLR,,0.00,WeatherDisplay:10.37,2013-08-28 22:25:00,
2013-08-28 17:26:00,83.3,66.0,30.01,ESE,109,4.9,7.4,56,0.00,CLR,,0.00,WeatherDisplay:10.37,2013-08-28 22:26:00,
2013-08-28 17:27:00,83.3,66.0,30.01,ESE,106,4.8,6.9,56,0.00,CLR,,0.00,WeatherDisplay:10.37,2013-08-28 22:27:00,
2013-08-28 17:29:00,83.1,65.8,30.00,East,82,3.3,6.9,56,0.00,CLR,,0.00,WeatherDisplay:10.37,2013-08-28 22:29:00,
2013-08-28 17:30:00,83.0,65.7,30.00,NE,37,3.5,6.9,56,0.00,CLR,,0.00,WeatherDisplay:10.37,2013-08-28 22:30:00,
2013-08-28 17:32:00,82.9,65.6,30.00,NNE,24,2.8,5.8,56,0.00,CLR,,0.00,WeatherDisplay:10.37,2013-08-28 22:32:00,
2013-08-28 17:34:00,82.6,65.3,30.01,NNE,13,1.3,3.5,56,0.00,CLR,,0.00,WeatherDisplay:10.37,2013-08-28 22:34:00,
2013-08-28 17:35:00,82.5,65.2,30.01,NE,40,1.2,3.5,56,0.00,CLR,,0.00,WeatherDisplay:10.37,2013-08-28 22:35:00,
2013-08-28 17:37:00,82.4,65.6,30.01,North,7,2.2,6.9,57,0.00,CLR,,0.00,WeatherDisplay:10.37,2013-08-28 22:37:00,
2013-08-28 17:38:00,82.4,65.6,30.01,ESE,113,1.3,5.8,57,0.00,CLR,,0.00,WeatherDisplay:10.37,2013-08-28 22:38:00,
2013-08-28 17:40:00,82.3,65.5,30.01,SE,124,3.2,6.9,57,0.00,CLR,,0.00,WeatherDisplay:10.37,2013-08-28 22:40:00,
2013-08-28 17:42:00,82.1,65.9,30.01,ESE,106,0.4,4.0,58,0.00,CLR,,0.00,WeatherDisplay:10.37,2013-08-28 22:42:00,
2013-08-28 17:43:00,82.0,65.8,30.01,NE,37,2.4,4.6,58,0.00,CLR,,0.00,WeatherDisplay:10.37,2013-08-28 22:43:00,
2013-08-28 17:45:00,81.9,65.7,30.01,NNE,24,2.4,5.8,58,0.00,CLR,,0.00,WeatherDisplay:10.37,2013-08-28 22:45:00,
2013-08-28 17:46:00,81.8,65.6,30.01,North,7,1.7,3.5,58,0.00,CLR,,0.00,WeatherDisplay:10.37,2013-08-28 22:46:00,
2013-08-28 17:47:00,81.7,65.5,30.01,North,11,0.7,2.3,58,0.00,CLR,,0.00,WeatherDisplay:10.37,2013-08-28 22:47:00,
2013-08-28 17:48:00,81.7,65.5,30.01,ENE,58,1.1,2.3,58,0.00,CLR,,0.00,WeatherDisplay:10.37,2013-08-28 22:48:00,
2013-08-28 17:50:00,81.5,65.3,30.01,ENE,58,0.0,0.0,58,0.00,CLR,,0.00,WeatherDisplay:10.37,2013-08-28 22:50:00,
2013-08-28 17:51:00,81.4,65.2,30.01,ENE,58,0.0,0.0,58,0.00,CLR,,0.00,WeatherDisplay:10.37,2013-08-28 22:51:00,
2013-08-28 17:52:00,81.3,65.1,30.01,ENE,58,0.0,0.0,58,0.00,CLR,,0.00,WeatherDisplay:10.37,2013-08-28 22:52:00,
2013-08-28 17:53:00,81.4,65.2,30.01,ENE,58,0.0,0.0,58,0.00,CLR,,0.00,WeatherDisplay:10.37,2013-08-28 22:53:00,
2013-08-28 17:55:00,81.4,65.7,30.00,NE,55,0.0,3.5,59,0.00,CLR,,0.00,WeatherDisplay:10.37,2013-08-28 22:55:00,
2013-08-28 17:56:00,81.3,65.6,30.00,North,360,0.4,3.4,59,0.00,CLR,,0.00,WeatherDisplay:10.37,2013-08-28 22:56:00,
2013-08-28 17:58:00,81.3,65.6,30.01,ENE,76,1.2,3.5,59,0.00,CLR,,0.00,WeatherDisplay:10.37,2013-08-28 22:58:00,
2013-08-28 18:00:00,81.1,65.4,30.01,East,88,3.1,4.6,59,0.00,CLR,,0.00,WeatherDisplay:10.37,2013-08-28 23:00:00,
2013-08-28 18:01:00,81.1,65.4,30.01,NNE,30,3.4,4.6,59,0.00,CLR,,0.00,WeatherDisplay:10.37,2013-08-28 23:01:00,
2013-08-28 18:02:00,81.0,65.3,30.01,NE,56,2.7,4.6,59,0.00,CLR,,0.00,WeatherDisplay:10.37,2013-08-28 23:02:00,
2013-08-28 18:03:00,80.9,65.2,30.01,North,357,2.5,4.6,59,0.00,CLR,,0.00,WeatherDisplay:10.37,2013-08-28 23:03:00,
2013-08-28 18:06:00,80.7,65.0,30.01,ENE,66,0.0,3.5,59,0.00,CLR,,0.00,WeatherDisplay:10.37,2013-08-28 23:06:00,
2013-08-28 18:07:00,80.8,65.6,30.01,ENE,66,0.0,0.0,60,0.00,CLR,,0.00,WeatherDisplay:10.37,2013-08-28 23:07:00,
2013-08-28 18:08:00,80.7,65.5,30.01,South,169,1.6,4.6,60,0.00,CLR,,0.00,WeatherDisplay:10.37,2013-08-28 23:08:00,
2013-08-28 18:12:00,80.6,65.4,30.01,NE,56,1.7,4.6,60,0.00,CLR,,0.00,WeatherDisplay:10.37,2013-08-28 23:12:00,
2013-08-28 18:13:00,80.5,65.3,30.01,ENE,59,1.0,3.5,60,0.00,CLR,,0.00,WeatherDisplay:10.37,2013-08-28 23:13:00,
2013-08-28 18:14:00,80.4,65.2,30.00,NE,44,1.9,3.5,60,0.00,CLR,,0.00,WeatherDisplay:10.37,2013-08-28 23:14:00,
2013-08-28 18:17:00,80.5,65.3,30.01,NE,42,1.2,3.5,60,0.00,CLR,,0.00,WeatherDisplay:10.37,2013-08-28 23:17:00,
2013-08-28 18:18:00,80.5,65.3,30.00,NE,42,0.0,2.3,60,0.00,CLR,,0.00,WeatherDisplay:10.37,2013-08-28 23:18:00,
2013-08-28 18:19:00,80.4,65.2,30.01,NNW,335,0.2,1.2,60,0.00,CLR,,0.00,WeatherDisplay:10.37,2013-08-28 23:19:00,
2013-08-28 18:20:00,80.4,65.2,30.00,NNW,335,0.0,0.0,60,0.00,CLR,,0.00,WeatherDisplay:10.37,2013-08-28 23:20:00,
2013-08-28 18:22:00,80.4,65.2,30.01,ENE,64,0.7,2.9,60,0.00,CLR,,0.00,WeatherDisplay:10.37,2013-08-28 23:22:00,
2013-08-28 18:24:00,80.3,65.6,30.00,NE,54,1.1,4.6,61,0.00,CLR,,0.00,WeatherDisplay:10.37,2013-08-28 23:24:00,
2013-08-28 18:25:00,80.3,65.6,30.01,NE,54,0.0,0.0,61,0.00,CLR,,0.00,WeatherDisplay:10.37,2013-08-28 23:25:00,
2013-08-28 18:27:00,80.3,65.6,30.01,East,100,1.7,2.8,61,0.00,CLR,,0.00,WeatherDisplay:10.37,2013-08-28 23:27:00,
2013-08-28 18:29:00,80.1,65.4,30.01,ENE,59,1.5,3.5,61,0.00,CLR,,0.00,WeatherDisplay:10.37,2013-08-28 23:29:00,
2013-08-28 18:30:00,80.2,66.0,30.01,NE,47,1.6,3.5,62,0.00,CLR,,0.00,WeatherDisplay:10.37,2013-08-28 23:30:00,
2013-08-28 18:32:00,80.2,66.0,30.01,ESE,116,0.7,3.5,62,0.00,CLR,,0.00,WeatherDisplay:10.37,2013-08-28 23:32:00,
2013-08-28 18:34:00,80.1,65.9,30.01,ENE,72,2.4,3.5,62,0.00,CLR,,0.00,WeatherDisplay:10.37,2013-08-28 23:34:00,
2013-08-28 18:35:00,80.1,65.9,30.01,ESE,107,1.4,2.3,62,0.00,CLR,,0.00,WeatherDisplay:10.37,2013-08-28 23:35:00,
2013-08-28 18:36:00,80.0,65.8,30.01,North,7,2.1,2.3,62,0.00,CLR,,0.00,WeatherDisplay:10.37,2013-08-28 23:36:00,
2013-08-28 18:37:00,80.0,65.8,30.01,NNW,347,2.4,4.6,62,0.00,CLR,,0.00,WeatherDisplay:10.37,2013-08-28 23:37:00,
2013-08-28 18:39:00,79.9,65.7,30.01,NNW,347,0.0,1.2,62,0.00,CLR,,0.00,WeatherDisplay:10.37,2013-08-28 23:39:00,
2013-08-28 18:40:00,79.9,65.7,30.01,NNW,347,0.0,0.0,62,0.00,CLR,,0.00,WeatherDisplay:10.37,2013-08-28 23:40:00,
2013-08-28 18:41:00,80.0,65.8,30.01,NNW,347,0.0,0.0,62,0.00,CLR,,0.00,WeatherDisplay:10.37,2013-08-28 23:41:00,
2013-08-28 18:42:00,79.9,65.7,30.01,NE,34,2.3,4.6,62,0.00,CLR,,0.00,WeatherDisplay:10.37,2013-08-28 23:42:00,
2013-08-28 18:44:00,79.9,66.2,30.01,NE,37,2.6,3.8,63,0.00,CLR,,0.00,WeatherDisplay:10.37,2013-08-28 23:44:00,
2013-08-28 18:45:00,79.9,65.7,30.01,North,3,3.9,5.8,62,0.00,CLR,,0.00,WeatherDisplay:10.37,2013-08-28 23:45:00,
2013-08-28 18:46:00,79.8,65.6,30.01,East,90,3.3,5.8,62,0.00,CLR,,0.00,WeatherDisplay:10.37,2013-08-28 23:46:00,
2013-08-28 18:47:00,79.8,65.6,30.01,East,83,2.8,4.6,62,0.00,CLR,,0.00,WeatherDisplay:10.37,2013-08-28 23:47:00,
2013-08-28 18:49:00,79.7,66.0,30.00,NNE,32,3.1,5.8,63,0.00,CLR,,0.00,WeatherDisplay:10.37,2013-08-28 23:49:00,
2013-08-28 18:50:00,79.5,65.8,30.01,ENE,78,2.2,3.5,63,0.00,CLR,,0.00,WeatherDisplay:10.37,2013-08-28 23:50:00,
2013-08-28 18:51:00,79.7,66.0,30.00,NE,55,0.5,1.2,63,0.00,CLR,,0.00,WeatherDisplay:10.37,2013-08-28 23:51:00,
2013-08-28 18:52:00,79.5,65.8,30.00,NE,55,0.2,1.2,63,0.00,CLR,,0.00,WeatherDisplay:10.37,2013-08-28 23:52:00,
2013-08-28 18:53:00,79.5,65.8,30.01,North,10,1.4,3.5,63,0.00,CLR,,0.00,WeatherDisplay:10.37,2013-08-28 23:53:00,
2013-08-28 18:54:00,79.4,65.7,30.00,East,82,0.1,1.2,63,0.00,CLR,,0.00,WeatherDisplay:10.37,2013-08-28 23:54:00,
2013-08-28 18:56:00,79.4,65.7,30.01,East,82,0.0,0.0,63,0.00,CLR,,0.00,WeatherDisplay:10.37,2013-08-28 23:56:00,
2013-08-28 18:57:00,79.4,65.7,30.01,East,80,0.3,1.2,63,0.00,CLR,,0.00,WeatherDisplay:10.37,2013-08-28 23:57:00,
2013-08-28 18:58:00,79.4,65.7,30.01,ENE,58,1.2,1.9,63,0.00,CLR,,0.00,WeatherDisplay:10.37,2013-08-28 23:58:00,
2013-08-28 18:59:00,79.3,66.1,30.01,NNW,337,1.1,2.3,64,0.00,CLR,,0.00,WeatherDisplay:10.37,2013-08-28 23:59:00,
2013-08-28 19:01:00,79.4,66.2,30.01,NNW,337,0.0,0.0,64,0.00,CLR,,0.00,WeatherDisplay:10.37,2013-08-29 00:01:00,
2013-08-28 19:02:00,79.3,66.1,30.01,NNW,337,0.2,1.3,64,0.00,CLR,,0.00,WeatherDisplay:10.37,2013-08-29 00:02:00,
2013-08-28 19:03:00,79.3,66.1,30.01,NNW,339,1.3,2.1,64,0.00,CLR,,0.00,WeatherDisplay:10.37,2013-08-29 00:03:00,
2013-08-28 19:04:00,79.3,66.1,30.02,NNW,342,0.7,3.3,64,0.00,CLR,,0.00,WeatherDisplay:10.37,2013-08-29 00:04:00,
2013-08-28 19:05:00,79.2,66.0,30.02,North,349,1.0,2.3,64,0.00,CLR,,0.00,WeatherDisplay:10.37,2013-08-29 00:05:00,
2013-08-28 19:06:00,79.2,66.0,30.01,NE,51,0.2,3.5,64,0.00,CLR,,0.00,WeatherDisplay:10.37,2013-08-29 00:06:00,
2013-08-28 19:07:00,79.1,65.9,30.01,NNE,27,0.4,1.2,64,0.00,CLR,,0.00,WeatherDisplay:10.37,2013-08-29 00:07:00,
2013-08-28 19:08:00,79.1,65.9,30.01,NE,55,1.3,3.5,64,0.00,CLR,,0.00,WeatherDisplay:10.37,2013-08-29 00:08:00,
2013-08-28 19:10:00,79.1,65.9,30.01,ENE,66,1.4,2.3,64,0.00,CLR,,0.00,WeatherDisplay:10.37,2013-08-29 00:10:00,
2013-08-28 19:11:00,79.0,65.8,30.01,East,92,0.3,2.4,64,0.00,CLR,,0.00,WeatherDisplay:10.37,2013-08-29 00:11:00,
2013-08-28 19:12:00,79.0,65.8,30.01,East,100,2.2,2.4,64,0.00,CLR,,0.00,WeatherDisplay:10.37,2013-08-29 00:12:00,
2013-08-28 19:13:00,78.9,65.7,30.01,ENE,61,2.3,4.6,64,0.00,CLR,,0.00,WeatherDisplay:10.37,2013-08-29 00:13:00,
2013-08-28 19:15:00,78.8,66.0,30.01,NE,52,1.9,3.5,65,0.00,CLR,,0.00,WeatherDisplay:10.37,2013-08-29 00:15:00,
2013-08-28 19:17:00,78.8,66.0,30.01,ENE,69,0.3,2.3,65,0.00,CLR,,0.00,WeatherDisplay:10.37,2013-08-29 00:17:00,
2013-08-28 19:18:00,78.7,65.9,30.01,NE,56,0.7,2.0,65,0.00,CLR,,0.00,WeatherDisplay:10.37,2013-08-29 00:18:00,
2013-08-28 19:19:00,78.4,65.7,30.01,ENE,78,1.1,2.3,65,0.00,CLR,,0.00,WeatherDisplay:10.37,2013-08-29 00:19:00,
2013-08-28 19:20:00,78.5,65.8,30.01,East,96,1.1,2.3,65,0.00,CLR,,0.00,WeatherDisplay:10.37,2013-08-29 00:20:00,
2013-08-28 19:22:00,78.3,66.0,30.01,NNE,21,0.3,0.6,66,0.00,CLR,,0.00,WeatherDisplay:10.37,2013-08-29 00:22:00,
2013-08-28 19:23:00,78.3,66.0,30.01,NNE,21,0.0,1.1,66,0.00,CLR,,0.00,WeatherDisplay:10.37,2013-08-29 00:23:00,
2013-08-28 19:25:00,78.1,65.8,30.02,ENE,73,1.3,2.3,66,0.00,CLR,,0.00,WeatherDisplay:10.37,2013-08-29 00:25:00,
2013-08-28 19:26:00,78.2,65.9,30.02,ENE,73,0.0,1.2,66,0.00,CLR,,0.00,WeatherDisplay:10.37,2013-08-29 00:26:00,
2013-08-28 19:27:00,78.0,65.7,30.02,NE,49,1.0,3.5,66,0.00,CLR,,0.00,WeatherDisplay:10.37,2013-08-29 00:27:00,
2013-08-28 19:28:00,78.0,65.7,30.02,NE,52,1.1,3.5,66,0.00,CLR,,0.00,WeatherDisplay:10.37,2013-08-29 00:28:00,
2013-08-28 19:30:00,77.9,65.6,30.02,East,95,0.3,1.2,66,0.00,CLR,,0.00,WeatherDisplay:10.37,2013-08-29 00:30:00,
2013-08-28 19:31:00,77.9,65.6,30.02,East,96,0.5,1.8,66,0.00,CLR,,0.00,WeatherDisplay:10.37,2013-08-29 00:31:00,
2013-08-28 19:32:00,77.8,65.5,30.02,NE,54,1.4,2.3,66,0.00,CLR,,0.00,WeatherDisplay:10.37,2013-08-29 00:32:00,
2013-08-28 19:33:00,77.7,65.4,30.02,NE,48,0.9,2.3,66,0.00,CLR,,0.00,WeatherDisplay:10.37,2013-08-29 00:33:00,
2013-08-28 19:34:00,77.7,65.4,30.02,NE,44,0.8,2.3,66,0.00,CLR,,0.00,WeatherDisplay:10.37,2013-08-29 00:34:00,
2013-08-28 19:35:00,77.5,65.7,30.02,ESE,104,0.1,1.2,67,0.00,CLR,,0.00,WeatherDisplay:10.37,2013-08-29 00:35:00,
2013-08-28 19:36:00,77.5,65.7,30.02,NE,49,1.7,2.3,67,0.00,CLR,,0.00,WeatherDisplay:10.37,2013-08-29 00:36:00,
2013-08-28 19:38:00,77.4,65.6,30.02,NNE,20,1.6,2.3,67,0.00,CLR,,0.00,WeatherDisplay:10.37,2013-08-29 00:38:00,
2013-08-28 19:39:00,77.2,65.4,30.01,ENE,68,1.7,3.2,67,0.00,CLR,,0.00,WeatherDisplay:10.37,2013-08-29 00:39:00,
2013-08-28 19:40:00,77.2,65.8,30.01,ENE,78,1.5,3.5,68,0.00,CLR,,0.00,WeatherDisplay:10.37,2013-08-29 00:40:00,
2013-08-28 19:41:00,77.1,65.7,30.01,East,80,1.8,2.9,68,0.00,CLR,,0.00,WeatherDisplay:10.37,2013-08-29 00:41:00,
2013-08-28 19:43:00,77.0,65.6,30.01,ENE,66,3.4,4.6,68,0.00,CLR,,0.00,WeatherDisplay:10.37,2013-08-29 00:43:00,
2013-08-28 19:44:00,77.0,65.6,30.02,ENE,59,2.5,4.6,68,0.00,CLR,,0.00,WeatherDisplay:10.37,2013-08-29 00:44:00,
2013-08-28 19:45:00,76.8,65.4,30.01,ENE,69,1.9,2.3,68,0.00,CLR,,0.00,WeatherDisplay:10.37,2013-08-29 00:45:00,
2013-08-28 19:47:00,76.8,65.4,30.02,ESE,103,1.4,2.3,68,0.00,CLR,,0.00,WeatherDisplay:10.37,2013-08-29 00:47:00,
2013-08-28 19:48:00,76.7,65.3,30.02,NNE,28,1.2,2.3,68,0.00,CLR,,0.00,WeatherDisplay:10.37,2013-08-29 00:48:00,
2013-08-28 19:49:00,76.7,65.8,30.01,ESE,103,0.8,2.3,69,0.00,CLR,,0.00,WeatherDisplay:10.37,2013-08-29 00:49:00,
2013-08-28 19:50:00,76.5,65.6,30.02,ENE,64,0.9,1.3,69,0.00,CLR,,0.00,WeatherDisplay:10.37,2013-08-29 00:50:00,
2013-08-28 19:53:00,76.4,65.5,30.02,NNE,25,0.1,1.2,69,0.00,CLR,,0.00,WeatherDisplay:10.37,2013-08-29 00:53:00,
2013-08-28 19:54:00,76.3,65.4,30.02,ENE,75,0.6,1.2,69,0.00,CLR,,0.00,WeatherDisplay:10.37,2013-08-29 00:54:00,
2013-08-28 19:55:00,76.3,65.4,30.02,NNE,31,0.5,1.2,69,0.00,CLR,,0.00,WeatherDisplay:10.37,2013-08-29 00:55:00,
2013-08-28 19:58:00,76.0,65.1,30.02,NE,34,0.0,0.0,69,0.00,CLR,,0.00,WeatherDisplay:10.37,2013-08-29 00:58:00,
2013-08-28 19:59:00,76.0,65.5,30.02,NE,34,0.0,0.0,70,0.00,CLR,,0.00,WeatherDisplay:10.37,2013-08-29 00:59:00,
2013-08-28 20:00:00,75.9,65.4,30.02,NE,34,0.0,0.0,70,0.00,CLR,,0.00,WeatherDisplay:10.37,2013-08-29 01:00:00,
2013-08-28 20:04:00,75.7,65.2,30.02,East,86,0.2,1.4,70,0.00,CLR,,0.00,WeatherDisplay:10.37,2013-08-29 01:04:00,
2013-08-28 20:05:00,75.6,65.1,30.02,ENE,62,1.5,1.7,70,0.00,CLR,,0.00,WeatherDisplay:10.37,2013-08-29 01:05:00,
2013-08-28 20:06:00,75.6,65.1,30.02,SE,136,1.6,2.3,70,0.00,CLR,,0.00,WeatherDisplay:10.37,2013-08-29 01:06:00,
2013-08-28 20:10:00,75.2,64.7,30.02,East,97,0.9,2.3,70,0.00,CLR,,0.00,WeatherDisplay:10.37,2013-08-29 01:10:00,
2013-08-28 20:11:00,75.2,65.1,30.02,East,85,1.2,2.3,71,0.00,CLR,,0.00,WeatherDisplay:10.37,2013-08-29 01:11:00,
2013-08-28 20:15:00,75.0,65.0,30.02,NNE,20,0.1,1.2,71,0.00,CLR,,0.00,WeatherDisplay:10.37,2013-08-29 01:15:00,
2013-08-28 20:16:00,74.8,65.2,30.02,NNE,23,0.1,1.2,72,0.00,CLR,,0.00,WeatherDisplay:10.37,2013-08-29 01:16:00,
2013-08-28 20:17:00,74.8,65.2,30.02,NNE,23,0.0,0.0,72,0.00,CLR,,0.00,WeatherDisplay:10.37,2013-08-29 01:17:00,
2013-08-28 20:20:00,74.7,65.1,30.02,NNE,28,1.6,3.5,72,0.00,CLR,,0.00,WeatherDisplay:10.37,2013-08-29 01:20:00,
2013-08-28 20:21:00,74.6,65.0,30.02,NE,35,0.5,2.3,72,0.00,CLR,,0.00,WeatherDisplay:10.37,2013-08-29 01:21:00,
2013-08-28 20:22:00,74.4,64.8,30.02,NE,37,0.1,1.2,72,0.00,CLR,,0.00,WeatherDisplay:10.37,2013-08-29 01:22:00,
2013-08-28 20:25:00,74.2,65.0,30.03,North,10,0.8,1.2,73,0.00,CLR,,0.00,WeatherDisplay:10.37,2013-08-29 01:25:00,
2013-08-28 20:26:00,74.4,65.2,30.03,North,354,0.7,1.2,73,0.00,CLR,,0.00,WeatherDisplay:10.37,2013-08-29 01:26:00,
2013-08-28 20:28:00,74.4,65.2,30.03,NW,316,0.0,1.2,73,0.00,CLR,,0.00,WeatherDisplay:10.37,2013-08-29 01:28:00,
2013-08-28 20:29:00,74.3,65.1,30.03,East,88,0.3,1.1,73,0.00,CLR,,0.00,WeatherDisplay:10.37,2013-08-29 01:29:00,
2013-08-28 20:30:00,74.2,65.0,30.03,NNE,30,0.0,0.0,73,0.00,CLR,,0.00,WeatherDisplay:10.37,2013-08-29 01:30:00,
2013-08-28 20:31:00,74.2,65.0,30.03,NNE,30,0.0,0.2,73,0.00,CLR,,0.00,WeatherDisplay:10.37,2013-08-29 01:31:00,
2013-08-28 20:32:00,74.2,65.0,30.03,NE,38,0.1,0.0,73,0.00,CLR,,0.00,WeatherDisplay:10.37,2013-08-29 01:32:00,
2013-08-28 20:33:00,74.2,65.0,30.03,NE,38,0.0,0.0,73,0.00,CLR,,0.00,WeatherDisplay:10.37,2013-08-29 01:33:00,
2013-08-28 20:34:00,74.1,64.9,30.03,NE,38,0.0,0.0,73,0.00,CLR,,0.00,WeatherDisplay:10.37,2013-08-29 01:34:00,
2013-08-28 20:36:00,74.1,64.9,30.03,NE,38,0.0,0.0,73,0.00,CLR,,0.00,WeatherDisplay:10.37,2013-08-29 01:36:00,
2013-08-28 20:37:00,74.0,64.8,30.03,NE,38,0.0,0.0,73,0.00,CLR,,0.00,WeatherDisplay:10.37,2013-08-29 01:37:00,
2013-08-28 20:38:00,73.8,64.6,30.03,NE,38,0.0,0.0,73,0.00,CLR,,0.00,WeatherDisplay:10.37,2013-08-29 01:38:00,
2013-08-28 20:39:00,74.0,64.8,30.03,NE,38,0.0,0.0,73,0.00,CLR,,0.00,WeatherDisplay:10.37,2013-08-29 01:39:00,
2013-08-28 20:41:00,73.8,65.0,30.03,NE,38,0.0,0.0,74,0.00,CLR,,0.00,WeatherDisplay:10.37,2013-08-29 01:41:00,
2013-08-28 20:42:00,73.9,65.1,30.03,NE,38,0.0,0.0,74,0.00,CLR,,0.00,WeatherDisplay:10.37,2013-08-29 01:42:00,
2013-08-28 20:43:00,73.8,65.0,30.03,NE,38,0.0,0.0,74,0.00,CLR,,0.00,WeatherDisplay:10.37,2013-08-29 01:43:00,
2013-08-28 20:44:00,73.8,65.0,30.03,NE,38,0.0,0.0,74,0.00,CLR,,0.00,WeatherDisplay:10.37,2013-08-29 01:44:00,
2013-08-28 20:46:00,73.7,64.9,30.03,NE,38,0.0,0.0,74,0.00,CLR,,0.00,WeatherDisplay:10.37,2013-08-29 01:46:00,
2013-08-28 20:47:00,73.6,64.8,30.03,NE,38,0.0,0.0,74,0.00,CLR,,0.00,WeatherDisplay:10.37,2013-08-29 01:47:00,
2013-08-28 20:48:00,73.5,64.7,30.03,NE,48,0.2,1.3,74,0.00,CLR,,0.00,WeatherDisplay:10.37,2013-08-29 01:48:00,
2013-08-28 20:50:00,73.6,64.8,30.03,NE,35,0.4,1.2,74,0.00,CLR,,0.00,WeatherDisplay:10.37,2013-08-29 01:50:00,
2013-08-28 20:51:00,73.4,64.6,30.03,NE,35,0.1,0.0,74,0.00,CLR,,0.00,WeatherDisplay:10.37,2013-08-29 01:51:00,
2013-08-28 20:52:00,73.3,64.5,30.03,NE,35,0.0,0.0,74,0.00,CLR,,0.00,WeatherDisplay:10.37,2013-08-29 01:52:00,
2013-08-28 20:54:00,73.3,64.5,30.03,NE,35,0.0,0.0,74,0.00,CLR,,0.00,WeatherDisplay:10.37,2013-08-29 01:54:00,
2013-08-28 20:55:00,73.2,64.4,30.03,NE,35,0.0,0.0,74,0.00,CLR,,0.00,WeatherDisplay:10.37,2013-08-29 01:55:00,
2013-08-28 20:56:00,73.1,64.3,30.03,NE,35,0.0,0.0,74,0.00,CLR,,0.00,WeatherDisplay:10.37,2013-08-29 01:56:00,
2013-08-28 20:57:00,72.9,64.1,30.03,NE,35,0.0,0.0,74,0.00,CLR,,0.00,WeatherDisplay:10.37,2013-08-29 01:57:00,
2013-08-28 20:59:00,73.0,64.2,30.03,NE,35,0.0,0.0,74,0.00,CLR,,0.00,WeatherDisplay:10.37,2013-08-29 01:59:00,
2013-08-28 21:01:00,73.0,64.2,30.03,NE,35,0.0,0.0,74,0.00,CLR,,0.00,WeatherDisplay:10.37,2013-08-29 02:01:00,
2013-08-28 21:02:00,72.8,64.0,30.03,NE,35,0.0,0.0,74,0.00,CLR,,0.00,WeatherDisplay:10.37,2013-08-29 02:02:00,
2013-08-28 21:05:00,72.7,64.3,30.03,NE,35,0.0,0.0,75,0.00,CLR,,0.00,WeatherDisplay:10.37,2013-08-29 02:05:00,
2013-08-28 21:06:00,72.7,64.3,30.03,NE,35,0.0,0.0,75,0.00,CLR,,0.00,WeatherDisplay:10.37,2013-08-29 02:06:00,
2013-08-28 21:07:00,72.7,64.3,30.03,NE,35,0.0,0.0,75,0.00,CLR,,0.00,WeatherDisplay:10.37,2013-08-29 02:07:00,
2013-08-28 21:08:00,72.6,64.2,30.03,NE,35,0.0,0.0,75,0.00,CLR,,0.00,WeatherDisplay:10.37,2013-08-29 02:08:00,
2013-08-28 21:11:00,72.5,64.1,30.03,NE,35,0.0,0.0,75,0.00,CLR,,0.00,WeatherDisplay:10.37,2013-08-29 02:11:00,
2013-08-28 21:12:00,72.4,64.0,30.03,NE,35,0.0,0.0,75,0.00,CLR,,0.00,WeatherDisplay:10.37,2013-08-29 02:12:00,
2013-08-28 21:13:00,72.4,64.0,30.03,NE,35,0.0,0.0,75,0.00,CLR,,0.00,WeatherDisplay:10.37,2013-08-29 02:13:00,
2013-08-28 21:14:00,72.3,63.9,30.03,NE,35,0.0,0.0,75,0.00,CLR,,0.00,WeatherDisplay:10.37,2013-08-29 02:14:00,
2013-08-28 21:16:00,72.3,64.3,30.03,NE,35,0.0,0.0,76,0.00,CLR,,0.00,WeatherDisplay:10.37,2013-08-29 02:16:00,
2013-08-28 21:17:00,72.3,64.3,30.03,NE,35,0.0,0.0,76,0.00,CLR,,0.00,WeatherDisplay:10.37,2013-08-29 02:17:00,
2013-08-28 21:18:00,72.1,64.1,30.03,NE,35,0.0,0.0,76,0.00,CLR,,0.00,WeatherDisplay:10.37,2013-08-29 02:18:00,
2013-08-28 21:20:00,72.2,64.2,30.03,NE,35,0.0,0.0,76,0.00,CLR,,0.00,WeatherDisplay:10.37,2013-08-29 02:20:00,
2013-08-28 21:21:00,72.2,64.2,30.03,NE,35,0.0,0.0,76,0.00,CLR,,0.00,WeatherDisplay:10.37,2013-08-29 02:21:00,
2013-08-28 21:22:00,72.1,64.1,30.03,NE,35,0.0,0.0,76,0.00,CLR,,0.00,WeatherDisplay:10.37,2013-08-29 02:22:00,
2013-08-28 21:23:00,72.1,64.1,30.03,NE,35,0.0,0.0,76,0.00,CLR,,0.00,WeatherDisplay:10.37,2013-08-29 02:23:00,
2013-08-28 21:24:00,72.0,64.0,30.03,NE,35,0.0,0.0,76,0.00,CLR,,0.00,WeatherDisplay:10.37,2013-08-29 02:24:00,
2013-08-28 21:25:00,71.9,64.3,30.03,NE,35,0.0,0.0,77,0.00,CLR,,0.00,WeatherDisplay:10.37,2013-08-29 02:25:00,
2013-08-28 21:27:00,71.9,64.3,30.03,NE,35,0.0,0.0,77,0.00,CLR,,0.00,WeatherDisplay:10.37,2013-08-29 02:27:00,
2013-08-28 21:28:00,72.0,64.4,30.04,NE,35,0.0,0.0,77,0.00,CLR,,0.00,WeatherDisplay:10.37,2013-08-29 02:28:00,
2013-08-28 21:29:00,71.9,64.3,30.03,NNE,28,0.0,0.0,77,0.00,CLR,,0.00,WeatherDisplay:10.37,2013-08-29 02:29:00,
2013-08-28 21:31:00,71.8,64.2,30.03,NNE,28,0.0,0.0,77,0.00,CLR,,0.00,WeatherDisplay:10.37,2013-08-29 02:31:00,
2013-08-28 21:32:00,71.9,64.3,30.04,NNE,28,0.0,0.0,77,0.00,CLR,,0.00,WeatherDisplay:10.37,2013-08-29 02:32:00,
2013-08-28 21:33:00,71.9,64.3,30.04,NNE,28,0.0,0.0,77,0.00,CLR,,0.00,WeatherDisplay:10.37,2013-08-29 02:33:00,
2013-08-28 21:34:00,71.8,64.2,30.04,NNE,28,0.0,0.0,77,0.00,CLR,,0.00,WeatherDisplay:10.37,2013-08-29 02:34:00,
2013-08-28 21:35:00,71.8,64.2,30.04,NNE,28,0.0,0.0,77,0.00,CLR,,0.00,WeatherDisplay:10.37,2013-08-29 02:35:00,
2013-08-28 21:36:00,71.8,64.2,30.04,NNE,28,0.0,0.0,77,0.00,CLR,,0.00,WeatherDisplay:10.37,2013-08-29 02:36:00,
2013-08-28 21:38:00,71.6,64.0,30.04,NNW,340,0.4,0.8,77,0.00,CLR,,0.00,WeatherDisplay:10.37,2013-08-29 02:38:00,
2013-08-28 21:39:00,71.7,64.1,30.04,NNW,340,0.0,1.2,77,0.00,CLR,,0.00,WeatherDisplay:10.37,2013-08-29 02:39:00,
2013-08-28 21:41:00,71.7,64.1,30.04,NNW,340,0.0,0.0,77,0.00,CLR,,0.00,WeatherDisplay:10.37,2013-08-29 02:41:00,
2013-08-28 21:43:00,71.5,63.9,30.04,NNW,340,0.0,0.0,77,0.00,CLR,,0.00,WeatherDisplay:10.37,2013-08-29 02:43:00,
2013-08-28 21:44:00,71.6,64.0,30.04,NNW,340,0.0,0.0,77,0.00,CLR,,0.00,WeatherDisplay:10.37,2013-08-29 02:44:00,
2013-08-28 21:46:00,71.5,63.9,30.04,NNW,347,1.1,2.3,77,0.00,CLR,,0.00,WeatherDisplay:10.37,2013-08-29 02:46:00,
2013-08-28 21:47:00,71.6,64.4,30.04,NNW,347,0.0,3.5,78,0.00,CLR,,0.00,WeatherDisplay:10.37,2013-08-29 02:47:00,
2013-08-28 21:48:00,71.6,64.4,30.04,North,7,0.6,1.2,78,0.00,CLR,,0.00,WeatherDisplay:10.37,2013-08-29 02:48:00,
2013-08-28 21:49:00,71.5,64.3,30.04,North,7,0.4,1.2,78,0.00,CLR,,0.00,WeatherDisplay:10.37,2013-08-29 02:49:00,
2013-08-28 21:51:00,71.5,64.3,30.04,NE,47,0.0,1.2,78,0.00,CLR,,0.00,WeatherDisplay:10.37,2013-08-29 02:51:00,
2013-08-28 21:52:00,71.5,64.3,30.04,NE,47,0.0,0.0,78,0.00,CLR,,0.00,WeatherDisplay:10.37,2013-08-29 02:52:00,
2013-08-28 21:53:00,71.5,64.3,30.04,NNE,17,0.2,0.0,78,0.00,CLR,,0.00,WeatherDisplay:10.37,2013-08-29 02:53:00,
2013-08-28 21:54:00,71.5,64.3,30.04,NNE,17,0.2,1.2,78,0.00,CLR,,0.00,WeatherDisplay:10.37,2013-08-29 02:54:00,
2013-08-28 21:56:00,71.5,64.3,30.04,NNE,17,0.0,0.0,78,0.00,CLR,,0.00,WeatherDisplay:10.37,2013-08-29 02:56:00,
2013-08-28 21:58:00,71.5,64.3,30.04,NNE,17,0.0,0.0,78,0.00,CLR,,0.00,WeatherDisplay:10.37,2013-08-29 02:58:00,
2013-08-28 21:59:00,71.5,64.3,30.04,NNE,17,0.0,0.0,78,0.00,CLR,,0.00,WeatherDisplay:10.37,2013-08-29 02:59:00,
2013-08-28 22:02:00,71.4,64.2,30.04,NNE,17,0.0,0.0,78,0.00,CLR,,0.00,WeatherDisplay:10.37,2013-08-29 03:02:00,
2013-08-28 22:03:00,71.4,64.2,30.04,NNE,17,0.0,0.0,78,0.00,CLR,,0.00,WeatherDisplay:10.37,2013-08-29 03:03:00,
2013-08-28 22:04:00,71.2,64.0,30.04,NNE,17,0.0,0.0,78,0.00,CLR,,0.00,WeatherDisplay:10.37,2013-08-29 03:04:00,
2013-08-28 22:05:00,71.2,64.0,30.04,NNE,17,0.0,0.0,78,0.00,CLR,,0.00,WeatherDisplay:10.37,2013-08-29 03:05:00,
2013-08-28 22:08:00,71.1,63.9,30.04,NNE,17,0.0,0.0,78,0.00,CLR,,0.00,WeatherDisplay:10.37,2013-08-29 03:08:00,
2013-08-28 22:09:00,71.0,63.8,30.04,NNE,17,0.0,0.0,78,0.00,CLR,,0.00,WeatherDisplay:10.37,2013-08-29 03:09:00,
2013-08-28 22:10:00,71.1,63.9,30.05,NNE,17,0.0,0.0,78,0.00,CLR,,0.00,WeatherDisplay:10.37,2013-08-29 03:10:00,
2013-08-28 22:11:00,71.1,64.3,30.04,NNE,17,0.0,0.0,79,0.00,CLR,,0.00,WeatherDisplay:10.37,2013-08-29 03:11:00,
2013-08-28 22:14:00,71.0,64.2,30.04,NNE,17,0.0,0.0,79,0.00,CLR,,0.00,WeatherDisplay:10.37,2013-08-29 03:14:00,
2013-08-28 22:15:00,70.9,64.1,30.04,NNE,17,0.0,0.0,79,0.00,CLR,,0.00,WeatherDisplay:10.37,2013-08-29 03:15:00,
2013-08-28 22:16:00,70.8,64.0,30.04,NNE,17,0.0,0.0,79,0.00,CLR,,0.00,WeatherDisplay:10.37,2013-08-29 03:16:00,
2013-08-28 22:19:00,71.0,64.2,30.04,NNE,17,0.0,0.0,79,0.00,CLR,,0.00,WeatherDisplay:10.37,2013-08-29 03:19:00,
2013-08-28 22:20:00,70.7,63.9,30.04,NNE,17,0.0,0.0,79,0.00,CLR,,0.00,WeatherDisplay:10.37,2013-08-29 03:20:00,
2013-08-28 22:21:00,70.8,64.0,30.04,NNE,17,0.0,0.0,79,0.00,CLR,,0.00,WeatherDisplay:10.37,2013-08-29 03:21:00,
2013-08-28 22:22:00,70.8,64.3,30.04,NNE,17,0.0,0.0,80,0.00,CLR,,0.00,WeatherDisplay:10.37,2013-08-29 03:22:00,
2013-08-28 22:24:00,70.6,64.1,30.04,NNE,17,0.0,0.0,80,0.00,CLR,,0.00,WeatherDisplay:10.37,2013-08-29 03:24:00,
2013-08-28 22:26:00,70.5,64.0,30.04,NNE,17,0.0,0.0,80,0.00,CLR,,0.00,WeatherDisplay:10.37,2013-08-29 03:26:00,
2013-08-28 22:27:00,70.6,64.1,30.04,NNE,17,0.0,0.0,80,0.00,CLR,,0.00,WeatherDisplay:10.37,2013-08-29 03:27:00,
2013-08-28 22:28:00,70.5,64.0,30.04,NNE,17,0.0,0.0,80,0.00,CLR,,0.00,WeatherDisplay:10.37,2013-08-29 03:28:00,
2013-08-28 22:29:00,70.5,63.7,30.04,NNE,17,0.0,0.0,79,0.00,CLR,,0.00,WeatherDisplay:10.37,2013-08-29 03:29:00,
2013-08-28 22:30:00,70.4,63.6,30.04,NNE,17,0.0,0.0,79,0.00,CLR,,0.00,WeatherDisplay:10.37,2013-08-29 03:30:00,
2013-08-28 22:32:00,70.3,63.5,30.03,NNE,17,0.0,0.0,79,0.00,CLR,,0.00,WeatherDisplay:10.37,2013-08-29 03:32:00,
2013-08-28 22:34:00,70.3,63.8,30.03,NNE,17,0.0,0.0,80,0.00,CLR,,0.00,WeatherDisplay:10.37,2013-08-29 03:34:00,
2013-08-28 22:35:00,70.3,63.8,30.03,NNE,17,0.0,0.0,80,0.00,CLR,,0.00,WeatherDisplay:10.37,2013-08-29 03:35:00,
2013-08-28 22:37:00,70.1,63.6,30.03,NNE,31,0.0,1.2,80,0.00,CLR,,0.00,WeatherDisplay:10.37,2013-08-29 03:37:00,
2013-08-28 22:39:00,70.1,63.6,30.03,NE,56,1.8,1.8,80,0.00,CLR,,0.00,WeatherDisplay:10.37,2013-08-29 03:39:00,
2013-08-28 22:40:00,70.0,63.5,30.03,East,85,1.6,3.5,80,0.00,CLR,,0.00,WeatherDisplay:10.37,2013-08-29 03:40:00,
2013-08-28 22:42:00,70.0,63.9,30.03,NE,40,1.3,2.3,81,0.00,CLR,,0.00,WeatherDisplay:10.37,2013-08-29 03:42:00,
2013-08-28 22:43:00,70.0,63.9,30.03,ESE,110,1.3,2.3,81,0.00,CLR,,0.00,WeatherDisplay:10.37,2013-08-29 03:43:00,
2013-08-28 22:44:00,69.9,63.8,30.03,ESE,119,1.1,1.2,81,0.00,CLR,,0.00,WeatherDisplay:10.37,2013-08-29 03:44:00,
2013-08-28 22:45:00,69.8,63.7,30.03,NE,49,0.6,1.5,81,0.00,CLR,,0.00,WeatherDisplay:10.37,2013-08-29 03:45:00,
2013-08-28 22:48:00,69.8,63.7,30.03,ESE,119,1.2,2.3,81,0.00,CLR,,0.00,WeatherDisplay:10.37,2013-08-29 03:48:00,
2013-08-28 22:50:00,69.8,63.7,30.03,ESE,110,1.6,2.3,81,0.00,CLR,,0.00,WeatherDisplay:10.37,2013-08-29 03:50:00,
2013-08-28 22:51:00,69.8,63.7,30.02,South,178,1.7,2.3,81,0.00,CLR,,0.00,WeatherDisplay:10.37,2013-08-29 03:51:00,
2013-08-28 22:53:00,69.8,64.1,30.03,SSE,151,0.0,1.2,82,0.00,CLR,,0.00,WeatherDisplay:10.37,2013-08-29 03:53:00,
2013-08-28 22:55:00,69.7,64.0,30.02,SSE,151,0.0,0.0,82,0.00,CLR,,0.00,WeatherDisplay:10.37,2013-08-29 03:55:00,
2013-08-28 22:57:00,69.5,63.8,30.03,SSE,151,0.0,0.0,82,0.00,CLR,,0.00,WeatherDisplay:10.37,2013-08-29 03:57:00,
2013-08-28 22:58:00,69.7,64.0,30.03,SSE,151,0.0,0.0,82,0.00,CLR,,0.00,WeatherDisplay:10.37,2013-08-29 03:58:00,
2013-08-28 23:00:00,69.7,64.0,30.03,SSE,151,0.0,0.0,82,0.00,CLR,,0.00,WeatherDisplay:10.37,2013-08-29 04:00:00,
2013-08-28 23:01:00,69.6,63.9,30.03,SSE,151,0.0,0.0,82,0.00,CLR,,0.00,WeatherDisplay:10.37,2013-08-29 04:01:00,
2013-08-28 23:02:00,69.6,63.9,30.03,SSE,151,0.0,0.0,82,0.00,CLR,,0.00,WeatherDisplay:10.37,2013-08-29 04:02:00,
2013-08-28 23:06:00,69.6,63.9,30.03,SSE,151,0.0,0.0,82,0.00,CLR,,0.00,WeatherDisplay:10.37,2013-08-29 04:06:00,
2013-08-28 23:07:00,69.5,63.8,30.03,SSE,151,0.0,0.0,82,0.00,CLR,,0.00,WeatherDisplay:10.37,2013-08-29 04:07:00,
2013-08-28 23:11:00,69.5,63.8,30.03,SE,124,0.3,2.7,82,0.00,CLR,,0.00,WeatherDisplay:10.37,2013-08-29 04:11:00,
2013-08-28 23:12:00,69.5,63.8,30.03,ESE,117,1.5,2.3,82,0.00,CLR,,0.00,WeatherDisplay:10.37,2013-08-29 04:12:00,
2013-08-28 23:13:00,69.4,63.7,30.03,ESE,106,1.2,1.2,82,0.00,CLR,,0.00,WeatherDisplay:10.37,2013-08-29 04:13:00,
2013-08-28 23:16:00,69.5,63.8,30.03,ESE,106,0.0,0.0,82,0.00,CLR,,0.00,WeatherDisplay:10.37,2013-08-29 04:16:00,
2013-08-28 23:17:00,69.4,63.7,30.03,ESE,106,0.0,0.0,82,0.00,CLR,,0.00,WeatherDisplay:10.37,2013-08-29 04:17:00,
2013-08-28 23:18:00,69.4,63.7,30.03,ESE,106,0.0,0.0,82,0.00,CLR,,0.00,WeatherDisplay:10.37,2013-08-29 04:18:00,
2013-08-28 23:21:00,69.4,63.7,30.03,ESE,106,0.0,0.0,82,0.00,CLR,,0.00,WeatherDisplay:10.37,2013-08-29 04:21:00,
2013-08-28 23:22:00,69.2,63.5,30.03,ESE,106,0.0,0.0,82,0.00,CLR,,0.00,WeatherDisplay:10.37,2013-08-29 04:22:00,
2013-08-28 23:23:00,69.3,63.6,30.03,ESE,106,0.0,0.0,82,0.00,CLR,,0.00,WeatherDisplay:10.37,2013-08-29 04:23:00,
2013-08-28 23:24:00,69.3,63.6,30.03,ESE,106,0.0,0.0,82,0.00,CLR,,0.00,WeatherDisplay:10.37,2013-08-29 04:24:00,
2013-08-28 23:26:00,69.3,63.9,30.03,ENE,72,0.9,0.9,83,0.00,CLR,,0.00,WeatherDisplay:10.37,2013-08-29 04:26:00,
2013-08-28 23:27:00,69.3,63.6,30.03,ENE,72,0.3,2.3,82,0.00,CLR,,0.00,WeatherDisplay:10.37,2013-08-29 04:27:00,
2013-08-28 23:28:00,69.3,63.6,30.03,ENE,72,0.0,1.2,82,0.00,CLR,,0.00,WeatherDisplay:10.37,2013-08-29 04:28:00,
2013-08-28 23:29:00,69.1,63.4,30.03,ENE,72,0.0,0.0,82,0.00,CLR,,0.00,WeatherDisplay:10.37,2013-08-29 04:29:00,
2013-08-28 23:31:00,69.2,63.8,30.03,East,82,0.3,2.3,83,0.00,CLR,,0.00,WeatherDisplay:10.37,2013-08-29 04:31:00,
2013-08-28 23:32:00,69.2,63.8,30.03,East,82,0.0,1.2,83,0.00,CLR,,0.00,WeatherDisplay:10.37,2013-08-29 04:32:00,
2013-08-28 23:33:00,69.1,63.7,30.03,East,82,0.0,0.0,83,0.00,CLR,,0.00,WeatherDisplay:10.37,2013-08-29 04:33:00,
2013-08-28 23:34:00,69.1,63.7,30.03,East,82,0.0,0.0,83,0.00,CLR,,0.00,WeatherDisplay:10.37,2013-08-29 04:34:00,
2013-08-28 23:36:00,68.9,63.2,30.03,East,82,0.0,0.0,82,0.00,CLR,,0.00,WeatherDisplay:10.37,2013-08-29 04:36:00,
2013-08-28 23:37:00,69.0,63.3,30.03,East,82,0.0,0.0,82,0.00,CLR,,0.00,WeatherDisplay:10.37,2013-08-29 04:37:00,
2013-08-28 23:38:00,69.0,63.3,30.03,East,82,0.0,0.0,82,0.00,CLR,,0.00,WeatherDisplay:10.37,2013-08-29 04:38:00,
2013-08-28 23:39:00,68.8,63.1,30.03,East,82,0.0,0.0,82,0.00,CLR,,0.00,WeatherDisplay:10.37,2013-08-29 04:39:00,
2013-08-28 23:41:00,68.9,63.2,30.03,East,82,0.0,0.0,82,0.00,CLR,,0.00,WeatherDisplay:10.37,2013-08-29 04:41:00,
2013-08-28 23:42:00,68.8,63.1,30.03,East,82,0.0,0.0,82,0.00,CLR,,0.00,WeatherDisplay:10.37,2013-08-29 04:42:00,
2013-08-28 23:44:00,68.8,63.4,30.03,East,82,0.0,0.0,83,0.00,CLR,,0.00,WeatherDisplay:10.37,2013-08-29 04:44:00,
2013-08-28 23:45:00,68.7,63.0,30.03,East,82,0.0,0.0,82,0.00,CLR,,0.00,WeatherDisplay:10.37,2013-08-29 04:45:00,
2013-08-28 23:46:00,68.8,63.1,30.03,East,82,0.0,0.0,82,0.00,CLR,,0.00,WeatherDisplay:10.37,2013-08-29 04:46:00,
2013-08-28 23:47:00,68.7,63.0,30.03,East,82,0.0,0.0,82,0.00,CLR,,0.00,WeatherDisplay:10.37,2013-08-29 04:47:00,
2013-08-28 23:49:00,68.6,63.2,30.03,East,82,0.0,0.0,83,0.00,CLR,,0.00,WeatherDisplay:10.37,2013-08-29 04:49:00,
2013-08-28 23:50:00,68.5,63.1,30.03,East,82,0.0,0.0,83,0.00,CLR,,0.00,WeatherDisplay:10.37,2013-08-29 04:50:00,
2013-08-28 23:51:00,68.4,63.0,30.03,East,82,0.0,0.0,83,0.00,CLR,,0.00,WeatherDisplay:10.37,2013-08-29 04:51:00,
2013-08-28 23:52:00,68.6,63.2,30.03,East,82,0.0,0.0,83,0.00,CLR,,0.00,WeatherDisplay:10.37,2013-08-29 04:52:00,
2013-08-28 23:55:00,68.5,63.1,30.03,East,82,0.0,0.0,83,0.00,CLR,,0.00,WeatherDisplay:10.37,2013-08-29 04:55:00,
2013-08-28 23:56:00,68.5,63.1,30.03,East,82,0.0,0.0,83,0.00,CLR,,0.00,WeatherDisplay:10.37,2013-08-29 04:56:00,
2013-08-28 23:57:00,68.5,63.1,30.03,East,82,0.0,0.0,83,0.00,CLR,,0.00,WeatherDisplay:10.37,2013-08-29 04:57:00,